<?xml version="1.0" encoding="UTF-8" standalone="no" ?>
<gpx xmlns="http://www.topografix.com/GPX/1/1" creator="MapSource 6.11.6" version="1.1" xmlns:xsi="http://www.w3.org/2001/XMLSchema-instance" xsi:schemaLocation="http://www.topografix.com/GPX/1/1 http://www.topografix.com/GPX/1/1/gpx.xsd">

  <metadata>
    <link href="http://www.garmin.com">
      <text>Garmin International</text>
    </link>
    <time>2009-03-01T12:45:12Z</time>
    <bounds maxlat="50.666057" maxlon="6.447257" minlat="50.650357" minlon="6.406435"/>
  </metadata>

  <trk>
    <name>Buschfelderhof 2</name>
    <extensions>
      <gpxx:TrackExtension xmlns:gpxx="http://www.garmin.com/xmlschemas/GpxExtensions/v3" xmlns:xsi="http://www.w3.org/2001/XMLSchema-instance" xsi:schemaLocation="http://www.garmin.com/xmlschemas/GpxExtensions/v3 http://www.garmin.com/xmlschemas/GpxExtensions/v3/GpxExtensionsv3.xsd">
        <gpxx:DisplayColor>White</gpxx:DisplayColor>
      </gpxx:TrackExtension>
    </extensions>
    <trkseg>
      <trkpt lat="50.663195" lon="6.407023">
        <ele>440.900000</ele>
        <time>2009-03-01T09:21:57Z</time>
      </trkpt>
      <trkpt lat="50.663064" lon="6.406833">
        <ele>441.380000</ele>
        <time>2009-03-01T09:22:10Z</time>
      </trkpt>
      <trkpt lat="50.663036" lon="6.406798">
        <ele>441.860000</ele>
        <time>2009-03-01T09:22:13Z</time>
      </trkpt>
      <trkpt lat="50.662894" lon="6.406658">
        <ele>443.790000</ele>
        <time>2009-03-01T09:22:26Z</time>
      </trkpt>
      <trkpt lat="50.662761" lon="6.406547">
        <ele>447.150000</ele>
        <time>2009-03-01T09:22:37Z</time>
      </trkpt>
      <trkpt lat="50.662581" lon="6.406437">
        <ele>449.070000</ele>
        <time>2009-03-01T09:22:51Z</time>
      </trkpt>
      <trkpt lat="50.662570" lon="6.406435">
        <ele>449.070000</ele>
        <time>2009-03-01T09:22:52Z</time>
      </trkpt>
      <trkpt lat="50.662512" lon="6.406518">
        <ele>449.070000</ele>
        <time>2009-03-01T09:22:57Z</time>
      </trkpt>
      <trkpt lat="50.662478" lon="6.406563">
        <ele>448.590000</ele>
        <time>2009-03-01T09:23:01Z</time>
      </trkpt>
      <trkpt lat="50.662344" lon="6.406786">
        <ele>449.070000</ele>
        <time>2009-03-01T09:23:12Z</time>
      </trkpt>
      <trkpt lat="50.662269" lon="6.406902">
        <ele>450.520000</ele>
        <time>2009-03-01T09:23:18Z</time>
      </trkpt>
      <trkpt lat="50.662119" lon="6.407097">
        <ele>451.480000</ele>
        <time>2009-03-01T09:23:30Z</time>
      </trkpt>
      <trkpt lat="50.662025" lon="6.407298">
        <ele>452.920000</ele>
        <time>2009-03-01T09:23:43Z</time>
      </trkpt>
      <trkpt lat="50.661896" lon="6.407540">
        <ele>454.360000</ele>
        <time>2009-03-01T09:23:56Z</time>
      </trkpt>
      <trkpt lat="50.661857" lon="6.407824">
        <ele>453.880000</ele>
        <time>2009-03-01T09:24:09Z</time>
      </trkpt>
      <trkpt lat="50.661704" lon="6.408076">
        <ele>454.360000</ele>
        <time>2009-03-01T09:24:24Z</time>
      </trkpt>
      <trkpt lat="50.661582" lon="6.408282">
        <ele>454.840000</ele>
        <time>2009-03-01T09:24:37Z</time>
      </trkpt>
      <trkpt lat="50.661454" lon="6.408540">
        <ele>453.880000</ele>
        <time>2009-03-01T09:24:52Z</time>
      </trkpt>
      <trkpt lat="50.661312" lon="6.408785">
        <ele>453.400000</ele>
        <time>2009-03-01T09:25:08Z</time>
      </trkpt>
      <trkpt lat="50.661230" lon="6.408665">
        <ele>453.400000</ele>
        <time>2009-03-01T09:25:15Z</time>
      </trkpt>
      <trkpt lat="50.661050" lon="6.408386">
        <ele>454.360000</ele>
        <time>2009-03-01T09:25:32Z</time>
      </trkpt>
      <trkpt lat="50.660925" lon="6.408166">
        <ele>455.800000</ele>
        <time>2009-03-01T09:25:45Z</time>
      </trkpt>
      <trkpt lat="50.660865" lon="6.408203">
        <ele>455.800000</ele>
        <time>2009-03-01T09:25:50Z</time>
      </trkpt>
      <trkpt lat="50.660666" lon="6.408406">
        <ele>455.320000</ele>
        <time>2009-03-01T09:26:05Z</time>
      </trkpt>
      <trkpt lat="50.660595" lon="6.408437">
        <ele>455.800000</ele>
        <time>2009-03-01T09:26:10Z</time>
      </trkpt>
      <trkpt lat="50.660397" lon="6.408542">
        <ele>455.320000</ele>
        <time>2009-03-01T09:26:24Z</time>
      </trkpt>
      <trkpt lat="50.660224" lon="6.408694">
        <ele>455.320000</ele>
        <time>2009-03-01T09:26:37Z</time>
      </trkpt>
      <trkpt lat="50.660155" lon="6.408798">
        <ele>454.840000</ele>
        <time>2009-03-01T09:26:44Z</time>
      </trkpt>
      <trkpt lat="50.660107" lon="6.408882">
        <ele>455.320000</ele>
        <time>2009-03-01T09:26:49Z</time>
      </trkpt>
      <trkpt lat="50.660092" lon="6.408953">
        <ele>454.840000</ele>
        <time>2009-03-01T09:26:53Z</time>
      </trkpt>
      <trkpt lat="50.659922" lon="6.408969">
        <ele>455.800000</ele>
        <time>2009-03-01T09:27:08Z</time>
      </trkpt>
      <trkpt lat="50.659844" lon="6.408976">
        <ele>455.320000</ele>
        <time>2009-03-01T09:27:14Z</time>
      </trkpt>
      <trkpt lat="50.659779" lon="6.409015">
        <ele>455.320000</ele>
        <time>2009-03-01T09:27:19Z</time>
      </trkpt>
      <trkpt lat="50.659732" lon="6.409036">
        <ele>455.320000</ele>
        <time>2009-03-01T09:27:22Z</time>
      </trkpt>
      <trkpt lat="50.659675" lon="6.409063">
        <ele>455.320000</ele>
        <time>2009-03-01T09:27:26Z</time>
      </trkpt>
      <trkpt lat="50.659485" lon="6.409117">
        <ele>455.800000</ele>
        <time>2009-03-01T09:27:40Z</time>
      </trkpt>
      <trkpt lat="50.659423" lon="6.409096">
        <ele>456.760000</ele>
        <time>2009-03-01T09:27:46Z</time>
      </trkpt>
      <trkpt lat="50.659374" lon="6.409089">
        <ele>455.800000</ele>
        <time>2009-03-01T09:27:49Z</time>
      </trkpt>
      <trkpt lat="50.659339" lon="6.409065">
        <ele>456.280000</ele>
        <time>2009-03-01T09:27:52Z</time>
      </trkpt>
      <trkpt lat="50.659274" lon="6.409030">
        <ele>456.280000</ele>
        <time>2009-03-01T09:27:57Z</time>
      </trkpt>
      <trkpt lat="50.659152" lon="6.409026">
        <ele>456.280000</ele>
        <time>2009-03-01T09:28:04Z</time>
      </trkpt>
      <trkpt lat="50.659000" lon="6.409169">
        <ele>455.320000</ele>
        <time>2009-03-01T09:28:18Z</time>
      </trkpt>
      <trkpt lat="50.658928" lon="6.409305">
        <ele>454.840000</ele>
        <time>2009-03-01T09:28:26Z</time>
      </trkpt>
      <trkpt lat="50.658832" lon="6.409523">
        <ele>455.320000</ele>
        <time>2009-03-01T09:28:38Z</time>
      </trkpt>
      <trkpt lat="50.658730" lon="6.409433">
        <ele>455.320000</ele>
        <time>2009-03-01T09:28:49Z</time>
      </trkpt>
      <trkpt lat="50.658628" lon="6.409374">
        <ele>456.760000</ele>
        <time>2009-03-01T09:28:57Z</time>
      </trkpt>
      <trkpt lat="50.658471" lon="6.409270">
        <ele>455.800000</ele>
        <time>2009-03-01T09:29:12Z</time>
      </trkpt>
      <trkpt lat="50.658459" lon="6.409212">
        <ele>456.760000</ele>
        <time>2009-03-01T09:29:21Z</time>
      </trkpt>
      <trkpt lat="50.658414" lon="6.409161">
        <ele>456.760000</ele>
        <time>2009-03-01T09:29:25Z</time>
      </trkpt>
      <trkpt lat="50.658205" lon="6.409064">
        <ele>456.760000</ele>
        <time>2009-03-01T09:29:42Z</time>
      </trkpt>
      <trkpt lat="50.658177" lon="6.409096">
        <ele>456.280000</ele>
        <time>2009-03-01T09:29:45Z</time>
      </trkpt>
      <trkpt lat="50.658062" lon="6.409387">
        <ele>455.800000</ele>
        <time>2009-03-01T09:29:59Z</time>
      </trkpt>
      <trkpt lat="50.658003" lon="6.409550">
        <ele>455.320000</ele>
        <time>2009-03-01T09:30:09Z</time>
      </trkpt>
      <trkpt lat="50.657934" lon="6.409648">
        <ele>455.320000</ele>
        <time>2009-03-01T09:30:19Z</time>
      </trkpt>
      <trkpt lat="50.657699" lon="6.409556">
        <ele>455.800000</ele>
        <time>2009-03-01T09:30:38Z</time>
      </trkpt>
      <trkpt lat="50.657632" lon="6.409522">
        <ele>455.800000</ele>
        <time>2009-03-01T09:30:42Z</time>
      </trkpt>
      <trkpt lat="50.657547" lon="6.409462">
        <ele>456.280000</ele>
        <time>2009-03-01T09:30:48Z</time>
      </trkpt>
      <trkpt lat="50.657403" lon="6.409331">
        <ele>456.760000</ele>
        <time>2009-03-01T09:31:01Z</time>
      </trkpt>
      <trkpt lat="50.657137" lon="6.409265">
        <ele>456.280000</ele>
        <time>2009-03-01T09:31:16Z</time>
      </trkpt>
      <trkpt lat="50.657110" lon="6.409265">
        <ele>455.800000</ele>
        <time>2009-03-01T09:31:18Z</time>
      </trkpt>
      <trkpt lat="50.656954" lon="6.409306">
        <ele>455.800000</ele>
        <time>2009-03-01T09:31:27Z</time>
      </trkpt>
      <trkpt lat="50.656876" lon="6.409075">
        <ele>456.280000</ele>
        <time>2009-03-01T09:31:42Z</time>
      </trkpt>
      <trkpt lat="50.656862" lon="6.409004">
        <ele>456.280000</ele>
        <time>2009-03-01T09:31:45Z</time>
      </trkpt>
      <trkpt lat="50.656835" lon="6.408909">
        <ele>456.280000</ele>
        <time>2009-03-01T09:31:49Z</time>
      </trkpt>
      <trkpt lat="50.656798" lon="6.408693">
        <ele>456.760000</ele>
        <time>2009-03-01T09:32:04Z</time>
      </trkpt>
      <trkpt lat="50.656744" lon="6.408422">
        <ele>457.720000</ele>
        <time>2009-03-01T09:32:17Z</time>
      </trkpt>
      <trkpt lat="50.656697" lon="6.408260">
        <ele>457.240000</ele>
        <time>2009-03-01T09:32:27Z</time>
      </trkpt>
      <trkpt lat="50.656664" lon="6.408147">
        <ele>457.240000</ele>
        <time>2009-03-01T09:32:33Z</time>
      </trkpt>
      <trkpt lat="50.656640" lon="6.407935">
        <ele>457.720000</ele>
        <time>2009-03-01T09:32:41Z</time>
      </trkpt>
      <trkpt lat="50.656597" lon="6.407559">
        <ele>457.240000</ele>
        <time>2009-03-01T09:32:56Z</time>
      </trkpt>
      <trkpt lat="50.656567" lon="6.407272">
        <ele>457.240000</ele>
        <time>2009-03-01T09:33:08Z</time>
      </trkpt>
      <trkpt lat="50.656506" lon="6.407036">
        <ele>457.240000</ele>
        <time>2009-03-01T09:33:21Z</time>
      </trkpt>
      <trkpt lat="50.656323" lon="6.406981">
        <ele>456.760000</ele>
        <time>2009-03-01T09:33:34Z</time>
      </trkpt>
      <trkpt lat="50.656140" lon="6.406912">
        <ele>456.280000</ele>
        <time>2009-03-01T09:33:47Z</time>
      </trkpt>
      <trkpt lat="50.656025" lon="6.406878">
        <ele>455.320000</ele>
        <time>2009-03-01T09:33:54Z</time>
      </trkpt>
      <trkpt lat="50.655967" lon="6.406906">
        <ele>454.840000</ele>
        <time>2009-03-01T09:33:58Z</time>
      </trkpt>
      <trkpt lat="50.655900" lon="6.407222">
        <ele>454.840000</ele>
        <time>2009-03-01T09:34:11Z</time>
      </trkpt>
      <trkpt lat="50.655901" lon="6.407379">
        <ele>455.320000</ele>
        <time>2009-03-01T09:34:17Z</time>
      </trkpt>
      <trkpt lat="50.655878" lon="6.407771">
        <ele>455.320000</ele>
        <time>2009-03-01T09:34:33Z</time>
      </trkpt>
      <trkpt lat="50.655853" lon="6.408124">
        <ele>454.840000</ele>
        <time>2009-03-01T09:34:48Z</time>
      </trkpt>
      <trkpt lat="50.655814" lon="6.408470">
        <ele>454.360000</ele>
        <time>2009-03-01T09:35:03Z</time>
      </trkpt>
      <trkpt lat="50.655776" lon="6.408754">
        <ele>453.880000</ele>
        <time>2009-03-01T09:35:15Z</time>
      </trkpt>
      <trkpt lat="50.655760" lon="6.409061">
        <ele>451.960000</ele>
        <time>2009-03-01T09:35:29Z</time>
      </trkpt>
      <trkpt lat="50.655767" lon="6.409391">
        <ele>449.070000</ele>
        <time>2009-03-01T09:35:43Z</time>
      </trkpt>
      <trkpt lat="50.655761" lon="6.409492">
        <ele>448.110000</ele>
        <time>2009-03-01T09:35:48Z</time>
      </trkpt>
      <trkpt lat="50.655799" lon="6.409709">
        <ele>445.710000</ele>
        <time>2009-03-01T09:35:57Z</time>
      </trkpt>
      <trkpt lat="50.655816" lon="6.410086">
        <ele>443.310000</ele>
        <time>2009-03-01T09:36:12Z</time>
      </trkpt>
      <trkpt lat="50.655860" lon="6.410372">
        <ele>442.340000</ele>
        <time>2009-03-01T09:36:24Z</time>
      </trkpt>
      <trkpt lat="50.655874" lon="6.410738">
        <ele>440.900000</ele>
        <time>2009-03-01T09:36:39Z</time>
      </trkpt>
      <trkpt lat="50.655876" lon="6.411058">
        <ele>438.020000</ele>
        <time>2009-03-01T09:36:53Z</time>
      </trkpt>
      <trkpt lat="50.655885" lon="6.411419">
        <ele>437.060000</ele>
        <time>2009-03-01T09:37:08Z</time>
      </trkpt>
      <trkpt lat="50.655850" lon="6.411768">
        <ele>436.580000</ele>
        <time>2009-03-01T09:37:22Z</time>
      </trkpt>
      <trkpt lat="50.655851" lon="6.411973">
        <ele>435.130000</ele>
        <time>2009-03-01T09:37:31Z</time>
      </trkpt>
      <trkpt lat="50.655801" lon="6.412245">
        <ele>435.130000</ele>
        <time>2009-03-01T09:37:44Z</time>
      </trkpt>
      <trkpt lat="50.655752" lon="6.412645">
        <ele>435.130000</ele>
        <time>2009-03-01T09:38:01Z</time>
      </trkpt>
      <trkpt lat="50.655690" lon="6.412886">
        <ele>435.610000</ele>
        <time>2009-03-01T09:38:13Z</time>
      </trkpt>
      <trkpt lat="50.655684" lon="6.412928">
        <ele>435.610000</ele>
        <time>2009-03-01T09:38:15Z</time>
      </trkpt>
      <trkpt lat="50.655598" lon="6.412991">
        <ele>435.610000</ele>
        <time>2009-03-01T09:38:21Z</time>
      </trkpt>
      <trkpt lat="50.655507" lon="6.412985">
        <ele>434.650000</ele>
        <time>2009-03-01T09:38:28Z</time>
      </trkpt>
      <trkpt lat="50.655445" lon="6.412984">
        <ele>434.170000</ele>
        <time>2009-03-01T09:38:32Z</time>
      </trkpt>
      <trkpt lat="50.655242" lon="6.413017">
        <ele>432.730000</ele>
        <time>2009-03-01T09:38:45Z</time>
      </trkpt>
      <trkpt lat="50.655052" lon="6.413100">
        <ele>432.250000</ele>
        <time>2009-03-01T09:38:58Z</time>
      </trkpt>
      <trkpt lat="50.654840" lon="6.413253">
        <ele>431.770000</ele>
        <time>2009-03-01T09:39:13Z</time>
      </trkpt>
      <trkpt lat="50.654761" lon="6.413343">
        <ele>431.770000</ele>
        <time>2009-03-01T09:39:19Z</time>
      </trkpt>
      <trkpt lat="50.654571" lon="6.413315">
        <ele>431.770000</ele>
        <time>2009-03-01T09:39:33Z</time>
      </trkpt>
      <trkpt lat="50.654365" lon="6.413391">
        <ele>432.250000</ele>
        <time>2009-03-01T09:39:45Z</time>
      </trkpt>
      <trkpt lat="50.654165" lon="6.413467">
        <ele>432.730000</ele>
        <time>2009-03-01T09:39:58Z</time>
      </trkpt>
      <trkpt lat="50.654100" lon="6.413477">
        <ele>432.250000</ele>
        <time>2009-03-01T09:40:03Z</time>
      </trkpt>
      <trkpt lat="50.654039" lon="6.413485">
        <ele>432.730000</ele>
        <time>2009-03-01T09:40:07Z</time>
      </trkpt>
      <trkpt lat="50.653869" lon="6.413508">
        <ele>432.250000</ele>
        <time>2009-03-01T09:40:20Z</time>
      </trkpt>
      <trkpt lat="50.653667" lon="6.413513">
        <ele>431.770000</ele>
        <time>2009-03-01T09:40:34Z</time>
      </trkpt>
      <trkpt lat="50.653452" lon="6.413435">
        <ele>429.850000</ele>
        <time>2009-03-01T09:40:48Z</time>
      </trkpt>
      <trkpt lat="50.653299" lon="6.413236">
        <ele>427.920000</ele>
        <time>2009-03-01T09:41:03Z</time>
      </trkpt>
      <trkpt lat="50.653180" lon="6.413072">
        <ele>426.000000</ele>
        <time>2009-03-01T09:41:14Z</time>
      </trkpt>
      <trkpt lat="50.652998" lon="6.412931">
        <ele>425.040000</ele>
        <time>2009-03-01T09:41:29Z</time>
      </trkpt>
      <trkpt lat="50.652738" lon="6.412880">
        <ele>422.640000</ele>
        <time>2009-03-01T09:41:45Z</time>
      </trkpt>
      <trkpt lat="50.652478" lon="6.412874">
        <ele>420.230000</ele>
        <time>2009-03-01T09:42:00Z</time>
      </trkpt>
      <trkpt lat="50.652319" lon="6.412848">
        <ele>418.310000</ele>
        <time>2009-03-01T09:42:13Z</time>
      </trkpt>
      <trkpt lat="50.652211" lon="6.412943">
        <ele>417.830000</ele>
        <time>2009-03-01T09:42:21Z</time>
      </trkpt>
      <trkpt lat="50.652171" lon="6.413044">
        <ele>417.350000</ele>
        <time>2009-03-01T09:42:26Z</time>
      </trkpt>
      <trkpt lat="50.652122" lon="6.413184">
        <ele>417.350000</ele>
        <time>2009-03-01T09:42:32Z</time>
      </trkpt>
      <trkpt lat="50.651982" lon="6.413388">
        <ele>417.830000</ele>
        <time>2009-03-01T09:42:46Z</time>
      </trkpt>
      <trkpt lat="50.651905" lon="6.413579">
        <ele>416.870000</ele>
        <time>2009-03-01T09:42:55Z</time>
      </trkpt>
      <trkpt lat="50.651795" lon="6.413856">
        <ele>414.950000</ele>
        <time>2009-03-01T09:43:10Z</time>
      </trkpt>
      <trkpt lat="50.651800" lon="6.413897">
        <ele>414.950000</ele>
        <time>2009-03-01T09:43:11Z</time>
      </trkpt>
      <trkpt lat="50.651860" lon="6.414030">
        <ele>414.470000</ele>
        <time>2009-03-01T09:43:17Z</time>
      </trkpt>
      <trkpt lat="50.651884" lon="6.414057">
        <ele>414.470000</ele>
        <time>2009-03-01T09:43:19Z</time>
      </trkpt>
      <trkpt lat="50.652083" lon="6.414176">
        <ele>413.980000</ele>
        <time>2009-03-01T09:43:35Z</time>
      </trkpt>
      <trkpt lat="50.652259" lon="6.414347">
        <ele>412.540000</ele>
        <time>2009-03-01T09:43:46Z</time>
      </trkpt>
      <trkpt lat="50.652376" lon="6.414374">
        <ele>411.580000</ele>
        <time>2009-03-01T09:43:52Z</time>
      </trkpt>
      <trkpt lat="50.652542" lon="6.414520">
        <ele>411.580000</ele>
        <time>2009-03-01T09:44:07Z</time>
      </trkpt>
      <trkpt lat="50.652765" lon="6.414736">
        <ele>411.580000</ele>
        <time>2009-03-01T09:44:23Z</time>
      </trkpt>
      <trkpt lat="50.652776" lon="6.414800">
        <ele>411.580000</ele>
        <time>2009-03-01T09:44:26Z</time>
      </trkpt>
      <trkpt lat="50.652848" lon="6.414840">
        <ele>412.060000</ele>
        <time>2009-03-01T09:44:31Z</time>
      </trkpt>
      <trkpt lat="50.653040" lon="6.414990">
        <ele>412.060000</ele>
        <time>2009-03-01T09:44:45Z</time>
      </trkpt>
      <trkpt lat="50.653194" lon="6.415133">
        <ele>411.580000</ele>
        <time>2009-03-01T09:44:57Z</time>
      </trkpt>
      <trkpt lat="50.653309" lon="6.415114">
        <ele>411.100000</ele>
        <time>2009-03-01T09:45:03Z</time>
      </trkpt>
      <trkpt lat="50.653383" lon="6.415310">
        <ele>410.140000</ele>
        <time>2009-03-01T09:45:13Z</time>
      </trkpt>
      <trkpt lat="50.653536" lon="6.415664">
        <ele>408.700000</ele>
        <time>2009-03-01T09:45:29Z</time>
      </trkpt>
      <trkpt lat="50.653661" lon="6.415883">
        <ele>406.290000</ele>
        <time>2009-03-01T09:45:44Z</time>
      </trkpt>
      <trkpt lat="50.653717" lon="6.415961">
        <ele>406.290000</ele>
        <time>2009-03-01T09:45:50Z</time>
      </trkpt>
      <trkpt lat="50.653756" lon="6.416078">
        <ele>406.290000</ele>
        <time>2009-03-01T09:45:55Z</time>
      </trkpt>
      <trkpt lat="50.653905" lon="6.416275">
        <ele>407.260000</ele>
        <time>2009-03-01T09:46:08Z</time>
      </trkpt>
      <trkpt lat="50.653971" lon="6.416632">
        <ele>408.700000</ele>
        <time>2009-03-01T09:46:25Z</time>
      </trkpt>
      <trkpt lat="50.653966" lon="6.416945">
        <ele>409.660000</ele>
        <time>2009-03-01T09:46:41Z</time>
      </trkpt>
      <trkpt lat="50.653995" lon="6.417342">
        <ele>409.180000</ele>
        <time>2009-03-01T09:46:56Z</time>
      </trkpt>
      <trkpt lat="50.654015" lon="6.417718">
        <ele>408.700000</ele>
        <time>2009-03-01T09:47:13Z</time>
      </trkpt>
      <trkpt lat="50.653931" lon="6.417899">
        <ele>409.180000</ele>
        <time>2009-03-01T09:47:25Z</time>
      </trkpt>
      <trkpt lat="50.653750" lon="6.418238">
        <ele>410.140000</ele>
        <time>2009-03-01T09:47:41Z</time>
      </trkpt>
      <trkpt lat="50.653660" lon="6.418388">
        <ele>410.620000</ele>
        <time>2009-03-01T09:47:51Z</time>
      </trkpt>
      <trkpt lat="50.653494" lon="6.418630">
        <ele>409.660000</ele>
        <time>2009-03-01T09:48:07Z</time>
      </trkpt>
      <trkpt lat="50.653471" lon="6.418661">
        <ele>409.660000</ele>
        <time>2009-03-01T09:48:09Z</time>
      </trkpt>
      <trkpt lat="50.653394" lon="6.418913">
        <ele>408.220000</ele>
        <time>2009-03-01T09:48:20Z</time>
      </trkpt>
      <trkpt lat="50.653316" lon="6.419170">
        <ele>408.220000</ele>
        <time>2009-03-01T09:48:33Z</time>
      </trkpt>
      <trkpt lat="50.653212" lon="6.419364">
        <ele>407.260000</ele>
        <time>2009-03-01T09:48:43Z</time>
      </trkpt>
      <trkpt lat="50.653169" lon="6.419532">
        <ele>407.740000</ele>
        <time>2009-03-01T09:48:52Z</time>
      </trkpt>
      <trkpt lat="50.653181" lon="6.419657">
        <ele>408.220000</ele>
        <time>2009-03-01T09:48:57Z</time>
      </trkpt>
      <trkpt lat="50.653200" lon="6.419742">
        <ele>408.700000</ele>
        <time>2009-03-01T09:49:01Z</time>
      </trkpt>
      <trkpt lat="50.653166" lon="6.420078">
        <ele>411.100000</ele>
        <time>2009-03-01T09:49:16Z</time>
      </trkpt>
      <trkpt lat="50.653158" lon="6.420109">
        <ele>411.580000</ele>
        <time>2009-03-01T09:49:18Z</time>
      </trkpt>
      <trkpt lat="50.653139" lon="6.420253">
        <ele>412.540000</ele>
        <time>2009-03-01T09:49:27Z</time>
      </trkpt>
      <trkpt lat="50.653143" lon="6.420336">
        <ele>413.020000</ele>
        <time>2009-03-01T09:49:30Z</time>
      </trkpt>
      <trkpt lat="50.653113" lon="6.420628">
        <ele>414.470000</ele>
        <time>2009-03-01T09:49:44Z</time>
      </trkpt>
      <trkpt lat="50.653128" lon="6.420795">
        <ele>413.980000</ele>
        <time>2009-03-01T09:49:52Z</time>
      </trkpt>
      <trkpt lat="50.653083" lon="6.420947">
        <ele>413.980000</ele>
        <time>2009-03-01T09:49:58Z</time>
      </trkpt>
      <trkpt lat="50.653071" lon="6.421287">
        <ele>413.020000</ele>
        <time>2009-03-01T09:50:14Z</time>
      </trkpt>
      <trkpt lat="50.653056" lon="6.421396">
        <ele>413.020000</ele>
        <time>2009-03-01T09:50:19Z</time>
      </trkpt>
      <trkpt lat="50.653037" lon="6.421616">
        <ele>413.020000</ele>
        <time>2009-03-01T09:50:28Z</time>
      </trkpt>
      <trkpt lat="50.653034" lon="6.421744">
        <ele>413.980000</ele>
        <time>2009-03-01T09:50:34Z</time>
      </trkpt>
      <trkpt lat="50.653045" lon="6.421887">
        <ele>414.950000</ele>
        <time>2009-03-01T09:50:41Z</time>
      </trkpt>
      <trkpt lat="50.652975" lon="6.422019">
        <ele>415.910000</ele>
        <time>2009-03-01T09:50:48Z</time>
      </trkpt>
      <trkpt lat="50.652881" lon="6.422132">
        <ele>416.390000</ele>
        <time>2009-03-01T09:51:05Z</time>
      </trkpt>
      <trkpt lat="50.652799" lon="6.422286">
        <ele>417.350000</ele>
        <time>2009-03-01T09:51:25Z</time>
      </trkpt>
      <trkpt lat="50.652814" lon="6.422312">
        <ele>416.870000</ele>
        <time>2009-03-01T09:51:43Z</time>
      </trkpt>
      <trkpt lat="50.652820" lon="6.422344">
        <ele>417.350000</ele>
        <time>2009-03-01T09:51:46Z</time>
      </trkpt>
      <trkpt lat="50.652888" lon="6.422413">
        <ele>417.350000</ele>
        <time>2009-03-01T09:51:52Z</time>
      </trkpt>
      <trkpt lat="50.653045" lon="6.422639">
        <ele>417.830000</ele>
        <time>2009-03-01T09:52:04Z</time>
      </trkpt>
      <trkpt lat="50.653066" lon="6.422770">
        <ele>417.830000</ele>
        <time>2009-03-01T09:52:11Z</time>
      </trkpt>
      <trkpt lat="50.653074" lon="6.422799">
        <ele>417.830000</ele>
        <time>2009-03-01T09:52:13Z</time>
      </trkpt>
      <trkpt lat="50.653063" lon="6.422872">
        <ele>417.830000</ele>
        <time>2009-03-01T09:52:16Z</time>
      </trkpt>
      <trkpt lat="50.653056" lon="6.423114">
        <ele>418.310000</ele>
        <time>2009-03-01T09:52:27Z</time>
      </trkpt>
      <trkpt lat="50.653030" lon="6.423296">
        <ele>418.310000</ele>
        <time>2009-03-01T09:52:34Z</time>
      </trkpt>
      <trkpt lat="50.653010" lon="6.423390">
        <ele>418.310000</ele>
        <time>2009-03-01T09:52:38Z</time>
      </trkpt>
      <trkpt lat="50.652976" lon="6.423602">
        <ele>418.790000</ele>
        <time>2009-03-01T09:52:48Z</time>
      </trkpt>
      <trkpt lat="50.652964" lon="6.423635">
        <ele>418.790000</ele>
        <time>2009-03-01T09:52:50Z</time>
      </trkpt>
      <trkpt lat="50.652894" lon="6.423856">
        <ele>417.350000</ele>
        <time>2009-03-01T09:53:01Z</time>
      </trkpt>
      <trkpt lat="50.652792" lon="6.423998">
        <ele>417.350000</ele>
        <time>2009-03-01T09:53:10Z</time>
      </trkpt>
      <trkpt lat="50.652775" lon="6.424055">
        <ele>417.830000</ele>
        <time>2009-03-01T09:53:13Z</time>
      </trkpt>
      <trkpt lat="50.652746" lon="6.424138">
        <ele>417.830000</ele>
        <time>2009-03-01T09:53:17Z</time>
      </trkpt>
      <trkpt lat="50.652605" lon="6.424314">
        <ele>417.830000</ele>
        <time>2009-03-01T09:53:29Z</time>
      </trkpt>
      <trkpt lat="50.652512" lon="6.424506">
        <ele>418.310000</ele>
        <time>2009-03-01T09:53:41Z</time>
      </trkpt>
      <trkpt lat="50.652426" lon="6.424713">
        <ele>420.230000</ele>
        <time>2009-03-01T09:53:53Z</time>
      </trkpt>
      <trkpt lat="50.652360" lon="6.424836">
        <ele>421.190000</ele>
        <time>2009-03-01T09:54:01Z</time>
      </trkpt>
      <trkpt lat="50.652191" lon="6.424782">
        <ele>421.680000</ele>
        <time>2009-03-01T09:54:17Z</time>
      </trkpt>
      <trkpt lat="50.652239" lon="6.424842">
        <ele>422.160000</ele>
        <time>2009-03-01T09:55:18Z</time>
      </trkpt>
      <trkpt lat="50.652399" lon="6.424944">
        <ele>422.160000</ele>
        <time>2009-03-01T09:55:30Z</time>
      </trkpt>
      <trkpt lat="50.652570" lon="6.425194">
        <ele>420.710000</ele>
        <time>2009-03-01T09:55:45Z</time>
      </trkpt>
      <trkpt lat="50.652617" lon="6.425297">
        <ele>420.230000</ele>
        <time>2009-03-01T09:55:51Z</time>
      </trkpt>
      <trkpt lat="50.652705" lon="6.425520">
        <ele>417.830000</ele>
        <time>2009-03-01T09:56:05Z</time>
      </trkpt>
      <trkpt lat="50.652839" lon="6.425821">
        <ele>414.950000</ele>
        <time>2009-03-01T09:56:20Z</time>
      </trkpt>
      <trkpt lat="50.652893" lon="6.425952">
        <ele>411.580000</ele>
        <time>2009-03-01T09:56:29Z</time>
      </trkpt>
      <trkpt lat="50.653058" lon="6.426220">
        <ele>409.180000</ele>
        <time>2009-03-01T09:56:48Z</time>
      </trkpt>
      <trkpt lat="50.653159" lon="6.426335">
        <ele>406.290000</ele>
        <time>2009-03-01T09:57:06Z</time>
      </trkpt>
      <trkpt lat="50.653307" lon="6.426590">
        <ele>403.410000</ele>
        <time>2009-03-01T09:57:22Z</time>
      </trkpt>
      <trkpt lat="50.653343" lon="6.426709">
        <ele>401.970000</ele>
        <time>2009-03-01T09:57:29Z</time>
      </trkpt>
      <trkpt lat="50.653532" lon="6.426999">
        <ele>401.490000</ele>
        <time>2009-03-01T09:57:48Z</time>
      </trkpt>
      <trkpt lat="50.653552" lon="6.427152">
        <ele>401.010000</ele>
        <time>2009-03-01T09:57:55Z</time>
      </trkpt>
      <trkpt lat="50.653516" lon="6.427233">
        <ele>400.530000</ele>
        <time>2009-03-01T09:57:58Z</time>
      </trkpt>
      <trkpt lat="50.653400" lon="6.427444">
        <ele>398.600000</ele>
        <time>2009-03-01T09:58:11Z</time>
      </trkpt>
      <trkpt lat="50.653368" lon="6.427570">
        <ele>396.680000</ele>
        <time>2009-03-01T09:58:17Z</time>
      </trkpt>
      <trkpt lat="50.653395" lon="6.427729">
        <ele>392.840000</ele>
        <time>2009-03-01T09:58:28Z</time>
      </trkpt>
      <trkpt lat="50.653395" lon="6.427931">
        <ele>389.470000</ele>
        <time>2009-03-01T09:58:42Z</time>
      </trkpt>
      <trkpt lat="50.653401" lon="6.428145">
        <ele>386.590000</ele>
        <time>2009-03-01T09:58:54Z</time>
      </trkpt>
      <trkpt lat="50.653413" lon="6.428300">
        <ele>383.700000</ele>
        <time>2009-03-01T09:59:05Z</time>
      </trkpt>
      <trkpt lat="50.653378" lon="6.428653">
        <ele>381.300000</ele>
        <time>2009-03-01T09:59:20Z</time>
      </trkpt>
      <trkpt lat="50.653384" lon="6.428874">
        <ele>378.900000</ele>
        <time>2009-03-01T09:59:31Z</time>
      </trkpt>
      <trkpt lat="50.653324" lon="6.428683">
        <ele>377.940000</ele>
        <time>2009-03-01T09:59:43Z</time>
      </trkpt>
      <trkpt lat="50.653290" lon="6.428475">
        <ele>377.450000</ele>
        <time>2009-03-01T09:59:50Z</time>
      </trkpt>
      <trkpt lat="50.653253" lon="6.428415">
        <ele>376.970000</ele>
        <time>2009-03-01T09:59:54Z</time>
      </trkpt>
      <trkpt lat="50.653120" lon="6.428170">
        <ele>375.050000</ele>
        <time>2009-03-01T10:00:08Z</time>
      </trkpt>
      <trkpt lat="50.652969" lon="6.427869">
        <ele>371.690000</ele>
        <time>2009-03-01T10:00:25Z</time>
      </trkpt>
      <trkpt lat="50.652824" lon="6.427448">
        <ele>369.760000</ele>
        <time>2009-03-01T10:00:44Z</time>
      </trkpt>
      <trkpt lat="50.652657" lon="6.427146">
        <ele>368.320000</ele>
        <time>2009-03-01T10:01:01Z</time>
      </trkpt>
      <trkpt lat="50.652514" lon="6.427020">
        <ele>368.320000</ele>
        <time>2009-03-01T10:01:11Z</time>
      </trkpt>
      <trkpt lat="50.652466" lon="6.426999">
        <ele>368.320000</ele>
        <time>2009-03-01T10:01:14Z</time>
      </trkpt>
      <trkpt lat="50.652371" lon="6.426997">
        <ele>365.440000</ele>
        <time>2009-03-01T10:01:24Z</time>
      </trkpt>
      <trkpt lat="50.652097" lon="6.426994">
        <ele>362.070000</ele>
        <time>2009-03-01T10:01:40Z</time>
      </trkpt>
      <trkpt lat="50.652053" lon="6.427015">
        <ele>361.110000</ele>
        <time>2009-03-01T10:01:44Z</time>
      </trkpt>
      <trkpt lat="50.651827" lon="6.427003">
        <ele>359.670000</ele>
        <time>2009-03-01T10:01:59Z</time>
      </trkpt>
      <trkpt lat="50.651773" lon="6.427013">
        <ele>357.270000</ele>
        <time>2009-03-01T10:02:15Z</time>
      </trkpt>
      <trkpt lat="50.651846" lon="6.427185">
        <ele>354.380000</ele>
        <time>2009-03-01T10:02:30Z</time>
      </trkpt>
      <trkpt lat="50.651863" lon="6.427258">
        <ele>353.420000</ele>
        <time>2009-03-01T10:02:35Z</time>
      </trkpt>
      <trkpt lat="50.652068" lon="6.427624">
        <ele>350.060000</ele>
        <time>2009-03-01T10:02:57Z</time>
      </trkpt>
      <trkpt lat="50.652059" lon="6.427766">
        <ele>347.170000</ele>
        <time>2009-03-01T10:03:12Z</time>
      </trkpt>
      <trkpt lat="50.652011" lon="6.427776">
        <ele>345.730000</ele>
        <time>2009-03-01T10:03:17Z</time>
      </trkpt>
      <trkpt lat="50.651866" lon="6.427672">
        <ele>344.290000</ele>
        <time>2009-03-01T10:03:24Z</time>
      </trkpt>
      <trkpt lat="50.651760" lon="6.427590">
        <ele>341.890000</ele>
        <time>2009-03-01T10:03:35Z</time>
      </trkpt>
      <trkpt lat="50.651530" lon="6.427612">
        <ele>339.480000</ele>
        <time>2009-03-01T10:03:47Z</time>
      </trkpt>
      <trkpt lat="50.651461" lon="6.427583">
        <ele>339.000000</ele>
        <time>2009-03-01T10:03:52Z</time>
      </trkpt>
      <trkpt lat="50.651341" lon="6.427643">
        <ele>335.640000</ele>
        <time>2009-03-01T10:04:04Z</time>
      </trkpt>
      <trkpt lat="50.651494" lon="6.427647">
        <ele>336.600000</ele>
        <time>2009-03-01T10:04:16Z</time>
      </trkpt>
      <trkpt lat="50.651752" lon="6.427592">
        <ele>339.000000</ele>
        <time>2009-03-01T10:04:35Z</time>
      </trkpt>
      <trkpt lat="50.651814" lon="6.427612">
        <ele>339.480000</ele>
        <time>2009-03-01T10:04:39Z</time>
      </trkpt>
      <trkpt lat="50.651961" lon="6.427681">
        <ele>340.920000</ele>
        <time>2009-03-01T10:04:49Z</time>
      </trkpt>
      <trkpt lat="50.652242" lon="6.427671">
        <ele>343.330000</ele>
        <time>2009-03-01T10:05:11Z</time>
      </trkpt>
      <trkpt lat="50.652420" lon="6.427745">
        <ele>344.290000</ele>
        <time>2009-03-01T10:05:25Z</time>
      </trkpt>
      <trkpt lat="50.652507" lon="6.427936">
        <ele>345.250000</ele>
        <time>2009-03-01T10:05:35Z</time>
      </trkpt>
      <trkpt lat="50.652475" lon="6.428169">
        <ele>345.730000</ele>
        <time>2009-03-01T10:05:47Z</time>
      </trkpt>
      <trkpt lat="50.652620" lon="6.428364">
        <ele>348.130000</ele>
        <time>2009-03-01T10:06:04Z</time>
      </trkpt>
      <trkpt lat="50.652763" lon="6.428715">
        <ele>350.540000</ele>
        <time>2009-03-01T10:06:23Z</time>
      </trkpt>
      <trkpt lat="50.652798" lon="6.428851">
        <ele>351.500000</ele>
        <time>2009-03-01T10:06:32Z</time>
      </trkpt>
      <trkpt lat="50.652884" lon="6.429011">
        <ele>351.980000</ele>
        <time>2009-03-01T10:06:43Z</time>
      </trkpt>
      <trkpt lat="50.652901" lon="6.429087">
        <ele>351.980000</ele>
        <time>2009-03-01T10:06:47Z</time>
      </trkpt>
      <trkpt lat="50.652941" lon="6.429224">
        <ele>352.460000</ele>
        <time>2009-03-01T10:06:52Z</time>
      </trkpt>
      <trkpt lat="50.653079" lon="6.429497">
        <ele>352.940000</ele>
        <time>2009-03-01T10:07:09Z</time>
      </trkpt>
      <trkpt lat="50.653140" lon="6.429694">
        <ele>352.940000</ele>
        <time>2009-03-01T10:07:19Z</time>
      </trkpt>
      <trkpt lat="50.653150" lon="6.429951">
        <ele>352.940000</ele>
        <time>2009-03-01T10:07:33Z</time>
      </trkpt>
      <trkpt lat="50.653216" lon="6.430327">
        <ele>352.940000</ele>
        <time>2009-03-01T10:07:46Z</time>
      </trkpt>
      <trkpt lat="50.653362" lon="6.430570">
        <ele>353.900000</ele>
        <time>2009-03-01T10:08:05Z</time>
      </trkpt>
      <trkpt lat="50.653482" lon="6.430866">
        <ele>356.310000</ele>
        <time>2009-03-01T10:08:25Z</time>
      </trkpt>
      <trkpt lat="50.653436" lon="6.430998">
        <ele>356.790000</ele>
        <time>2009-03-01T10:08:31Z</time>
      </trkpt>
      <trkpt lat="50.653395" lon="6.431037">
        <ele>356.790000</ele>
        <time>2009-03-01T10:08:34Z</time>
      </trkpt>
      <trkpt lat="50.653077" lon="6.431334">
        <ele>358.230000</ele>
        <time>2009-03-01T10:08:59Z</time>
      </trkpt>
      <trkpt lat="50.652862" lon="6.431379">
        <ele>361.110000</ele>
        <time>2009-03-01T10:09:19Z</time>
      </trkpt>
      <trkpt lat="50.652655" lon="6.431435">
        <ele>363.040000</ele>
        <time>2009-03-01T10:09:35Z</time>
      </trkpt>
      <trkpt lat="50.652631" lon="6.431434">
        <ele>363.040000</ele>
        <time>2009-03-01T10:09:37Z</time>
      </trkpt>
      <trkpt lat="50.652391" lon="6.431587">
        <ele>364.960000</ele>
        <time>2009-03-01T10:09:56Z</time>
      </trkpt>
      <trkpt lat="50.652148" lon="6.431691">
        <ele>365.920000</ele>
        <time>2009-03-01T10:10:18Z</time>
      </trkpt>
      <trkpt lat="50.652001" lon="6.431723">
        <ele>366.400000</ele>
        <time>2009-03-01T10:10:27Z</time>
      </trkpt>
      <trkpt lat="50.651966" lon="6.431752">
        <ele>366.880000</ele>
        <time>2009-03-01T10:10:30Z</time>
      </trkpt>
      <trkpt lat="50.651842" lon="6.431823">
        <ele>367.360000</ele>
        <time>2009-03-01T10:10:39Z</time>
      </trkpt>
      <trkpt lat="50.651831" lon="6.431841">
        <ele>367.840000</ele>
        <time>2009-03-01T10:10:41Z</time>
      </trkpt>
      <trkpt lat="50.651777" lon="6.431958">
        <ele>368.320000</ele>
        <time>2009-03-01T10:10:47Z</time>
      </trkpt>
      <trkpt lat="50.651631" lon="6.432118">
        <ele>369.760000</ele>
        <time>2009-03-01T10:11:03Z</time>
      </trkpt>
      <trkpt lat="50.651459" lon="6.432323">
        <ele>371.210000</ele>
        <time>2009-03-01T10:11:22Z</time>
      </trkpt>
      <trkpt lat="50.651375" lon="6.432446">
        <ele>372.170000</ele>
        <time>2009-03-01T10:11:38Z</time>
      </trkpt>
      <trkpt lat="50.651343" lon="6.432540">
        <ele>372.170000</ele>
        <time>2009-03-01T10:12:03Z</time>
      </trkpt>
      <trkpt lat="50.651224" lon="6.432834">
        <ele>373.130000</ele>
        <time>2009-03-01T10:12:22Z</time>
      </trkpt>
      <trkpt lat="50.651203" lon="6.432877">
        <ele>373.130000</ele>
        <time>2009-03-01T10:12:25Z</time>
      </trkpt>
      <trkpt lat="50.651219" lon="6.433244">
        <ele>375.050000</ele>
        <time>2009-03-01T10:12:42Z</time>
      </trkpt>
      <trkpt lat="50.651249" lon="6.433472">
        <ele>376.010000</ele>
        <time>2009-03-01T10:12:53Z</time>
      </trkpt>
      <trkpt lat="50.651238" lon="6.433742">
        <ele>376.970000</ele>
        <time>2009-03-01T10:13:05Z</time>
      </trkpt>
      <trkpt lat="50.651240" lon="6.433959">
        <ele>377.450000</ele>
        <time>2009-03-01T10:13:15Z</time>
      </trkpt>
      <trkpt lat="50.651274" lon="6.434197">
        <ele>377.940000</ele>
        <time>2009-03-01T10:13:26Z</time>
      </trkpt>
      <trkpt lat="50.651255" lon="6.434500">
        <ele>378.900000</ele>
        <time>2009-03-01T10:13:40Z</time>
      </trkpt>
      <trkpt lat="50.651219" lon="6.434897">
        <ele>379.860000</ele>
        <time>2009-03-01T10:13:59Z</time>
      </trkpt>
      <trkpt lat="50.651183" lon="6.435245">
        <ele>380.340000</ele>
        <time>2009-03-01T10:14:15Z</time>
      </trkpt>
      <trkpt lat="50.651099" lon="6.435336">
        <ele>380.340000</ele>
        <time>2009-03-01T10:14:21Z</time>
      </trkpt>
      <trkpt lat="50.650827" lon="6.435541">
        <ele>380.340000</ele>
        <time>2009-03-01T10:14:42Z</time>
      </trkpt>
      <trkpt lat="50.650720" lon="6.435662">
        <ele>380.820000</ele>
        <time>2009-03-01T10:14:53Z</time>
      </trkpt>
      <trkpt lat="50.650610" lon="6.435920">
        <ele>381.300000</ele>
        <time>2009-03-01T10:15:08Z</time>
      </trkpt>
      <trkpt lat="50.650493" lon="6.436217">
        <ele>381.780000</ele>
        <time>2009-03-01T10:15:25Z</time>
      </trkpt>
      <trkpt lat="50.650466" lon="6.436261">
        <ele>381.780000</ele>
        <time>2009-03-01T10:15:27Z</time>
      </trkpt>
      <trkpt lat="50.650357" lon="6.436474">
        <ele>382.260000</ele>
        <time>2009-03-01T10:15:41Z</time>
      </trkpt>
      <trkpt lat="50.650421" lon="6.436662">
        <ele>381.780000</ele>
        <time>2009-03-01T10:15:52Z</time>
      </trkpt>
      <trkpt lat="50.650445" lon="6.436786">
        <ele>381.300000</ele>
        <time>2009-03-01T10:15:58Z</time>
      </trkpt>
      <trkpt lat="50.650520" lon="6.437013">
        <ele>381.300000</ele>
        <time>2009-03-01T10:16:11Z</time>
      </trkpt>
      <trkpt lat="50.650703" lon="6.437410">
        <ele>382.260000</ele>
        <time>2009-03-01T10:16:34Z</time>
      </trkpt>
      <trkpt lat="50.650708" lon="6.437424">
        <ele>382.260000</ele>
        <time>2009-03-01T10:16:35Z</time>
      </trkpt>
      <trkpt lat="50.650838" lon="6.437663">
        <ele>382.740000</ele>
        <time>2009-03-01T10:16:50Z</time>
      </trkpt>
      <trkpt lat="50.650907" lon="6.437869">
        <ele>383.220000</ele>
        <time>2009-03-01T10:17:02Z</time>
      </trkpt>
      <trkpt lat="50.650958" lon="6.437977">
        <ele>383.220000</ele>
        <time>2009-03-01T10:17:07Z</time>
      </trkpt>
      <trkpt lat="50.650989" lon="6.438059">
        <ele>383.220000</ele>
        <time>2009-03-01T10:17:10Z</time>
      </trkpt>
      <trkpt lat="50.651012" lon="6.438138">
        <ele>383.220000</ele>
        <time>2009-03-01T10:17:14Z</time>
      </trkpt>
      <trkpt lat="50.651045" lon="6.438261">
        <ele>383.700000</ele>
        <time>2009-03-01T10:17:20Z</time>
      </trkpt>
      <trkpt lat="50.651148" lon="6.438515">
        <ele>383.700000</ele>
        <time>2009-03-01T10:17:33Z</time>
      </trkpt>
      <trkpt lat="50.651226" lon="6.438697">
        <ele>384.180000</ele>
        <time>2009-03-01T10:17:44Z</time>
      </trkpt>
      <trkpt lat="50.651249" lon="6.438785">
        <ele>383.700000</ele>
        <time>2009-03-01T10:17:48Z</time>
      </trkpt>
      <trkpt lat="50.651324" lon="6.438895">
        <ele>384.180000</ele>
        <time>2009-03-01T10:17:56Z</time>
      </trkpt>
      <trkpt lat="50.651429" lon="6.439178">
        <ele>383.700000</ele>
        <time>2009-03-01T10:18:10Z</time>
      </trkpt>
      <trkpt lat="50.651441" lon="6.439205">
        <ele>383.700000</ele>
        <time>2009-03-01T10:18:12Z</time>
      </trkpt>
      <trkpt lat="50.651450" lon="6.439235">
        <ele>383.700000</ele>
        <time>2009-03-01T10:18:14Z</time>
      </trkpt>
      <trkpt lat="50.651497" lon="6.439383">
        <ele>383.700000</ele>
        <time>2009-03-01T10:18:22Z</time>
      </trkpt>
      <trkpt lat="50.651513" lon="6.439424">
        <ele>383.220000</ele>
        <time>2009-03-01T10:18:24Z</time>
      </trkpt>
      <trkpt lat="50.651558" lon="6.439540">
        <ele>383.220000</ele>
        <time>2009-03-01T10:18:30Z</time>
      </trkpt>
      <trkpt lat="50.651584" lon="6.439568">
        <ele>383.220000</ele>
        <time>2009-03-01T10:18:32Z</time>
      </trkpt>
      <trkpt lat="50.651605" lon="6.439634">
        <ele>383.220000</ele>
        <time>2009-03-01T10:18:35Z</time>
      </trkpt>
      <trkpt lat="50.651690" lon="6.439765">
        <ele>382.740000</ele>
        <time>2009-03-01T10:18:43Z</time>
      </trkpt>
      <trkpt lat="50.651773" lon="6.439938">
        <ele>383.220000</ele>
        <time>2009-03-01T10:18:53Z</time>
      </trkpt>
      <trkpt lat="50.651866" lon="6.440132">
        <ele>382.740000</ele>
        <time>2009-03-01T10:19:07Z</time>
      </trkpt>
      <trkpt lat="50.651986" lon="6.440589">
        <ele>382.740000</ele>
        <time>2009-03-01T10:19:26Z</time>
      </trkpt>
      <trkpt lat="50.652044" lon="6.440914">
        <ele>381.780000</ele>
        <time>2009-03-01T10:19:39Z</time>
      </trkpt>
      <trkpt lat="50.652069" lon="6.441215">
        <ele>381.780000</ele>
        <time>2009-03-01T10:19:52Z</time>
      </trkpt>
      <trkpt lat="50.652061" lon="6.441478">
        <ele>382.260000</ele>
        <time>2009-03-01T10:20:05Z</time>
      </trkpt>
      <trkpt lat="50.652078" lon="6.441816">
        <ele>382.740000</ele>
        <time>2009-03-01T10:20:20Z</time>
      </trkpt>
      <trkpt lat="50.652137" lon="6.442104">
        <ele>383.700000</ele>
        <time>2009-03-01T10:20:32Z</time>
      </trkpt>
      <trkpt lat="50.652115" lon="6.442262">
        <ele>384.180000</ele>
        <time>2009-03-01T10:20:46Z</time>
      </trkpt>
      <trkpt lat="50.652087" lon="6.442405">
        <ele>384.660000</ele>
        <time>2009-03-01T10:20:51Z</time>
      </trkpt>
      <trkpt lat="50.651955" lon="6.442775">
        <ele>386.110000</ele>
        <time>2009-03-01T10:21:08Z</time>
      </trkpt>
      <trkpt lat="50.651955" lon="6.442863">
        <ele>386.590000</ele>
        <time>2009-03-01T10:21:13Z</time>
      </trkpt>
      <trkpt lat="50.651960" lon="6.442927">
        <ele>387.070000</ele>
        <time>2009-03-01T10:21:17Z</time>
      </trkpt>
      <trkpt lat="50.652055" lon="6.443193">
        <ele>388.510000</ele>
        <time>2009-03-01T10:21:32Z</time>
      </trkpt>
      <trkpt lat="50.652063" lon="6.443586">
        <ele>391.390000</ele>
        <time>2009-03-01T10:21:53Z</time>
      </trkpt>
      <trkpt lat="50.651958" lon="6.444025">
        <ele>394.760000</ele>
        <time>2009-03-01T10:22:14Z</time>
      </trkpt>
      <trkpt lat="50.651941" lon="6.444173">
        <ele>395.720000</ele>
        <time>2009-03-01T10:22:24Z</time>
      </trkpt>
      <trkpt lat="50.651939" lon="6.444331">
        <ele>396.680000</ele>
        <time>2009-03-01T10:22:41Z</time>
      </trkpt>
      <trkpt lat="50.651976" lon="6.444435">
        <ele>397.160000</ele>
        <time>2009-03-01T10:22:53Z</time>
      </trkpt>
      <trkpt lat="50.652111" lon="6.444709">
        <ele>398.120000</ele>
        <time>2009-03-01T10:23:12Z</time>
      </trkpt>
      <trkpt lat="50.652191" lon="6.444647">
        <ele>398.600000</ele>
        <time>2009-03-01T10:23:18Z</time>
      </trkpt>
      <trkpt lat="50.652291" lon="6.444629">
        <ele>397.640000</ele>
        <time>2009-03-01T10:23:31Z</time>
      </trkpt>
      <trkpt lat="50.652299" lon="6.444645">
        <ele>397.640000</ele>
        <time>2009-03-01T10:23:32Z</time>
      </trkpt>
      <trkpt lat="50.652322" lon="6.444678">
        <ele>397.640000</ele>
        <time>2009-03-01T10:23:34Z</time>
      </trkpt>
      <trkpt lat="50.652260" lon="6.444900">
        <ele>398.120000</ele>
        <time>2009-03-01T10:23:45Z</time>
      </trkpt>
      <trkpt lat="50.652310" lon="6.445192">
        <ele>397.640000</ele>
        <time>2009-03-01T10:24:00Z</time>
      </trkpt>
      <trkpt lat="50.652371" lon="6.445402">
        <ele>397.160000</ele>
        <time>2009-03-01T10:24:13Z</time>
      </trkpt>
      <trkpt lat="50.652431" lon="6.445672">
        <ele>396.680000</ele>
        <time>2009-03-01T10:24:26Z</time>
      </trkpt>
      <trkpt lat="50.652439" lon="6.445701">
        <ele>396.680000</ele>
        <time>2009-03-01T10:24:27Z</time>
      </trkpt>
      <trkpt lat="50.652565" lon="6.445975">
        <ele>396.200000</ele>
        <time>2009-03-01T10:24:42Z</time>
      </trkpt>
      <trkpt lat="50.652607" lon="6.446071">
        <ele>396.200000</ele>
        <time>2009-03-01T10:24:49Z</time>
      </trkpt>
      <trkpt lat="50.652725" lon="6.446158">
        <ele>395.720000</ele>
        <time>2009-03-01T10:25:03Z</time>
      </trkpt>
      <trkpt lat="50.652879" lon="6.446291">
        <ele>395.240000</ele>
        <time>2009-03-01T10:25:14Z</time>
      </trkpt>
      <trkpt lat="50.652998" lon="6.446406">
        <ele>394.760000</ele>
        <time>2009-03-01T10:25:25Z</time>
      </trkpt>
      <trkpt lat="50.653226" lon="6.446655">
        <ele>394.280000</ele>
        <time>2009-03-01T10:25:43Z</time>
      </trkpt>
      <trkpt lat="50.653249" lon="6.446730">
        <ele>394.280000</ele>
        <time>2009-03-01T10:25:58Z</time>
      </trkpt>
      <trkpt lat="50.653364" lon="6.446785">
        <ele>393.800000</ele>
        <time>2009-03-01T10:26:12Z</time>
      </trkpt>
      <trkpt lat="50.653598" lon="6.446988">
        <ele>394.280000</ele>
        <time>2009-03-01T10:26:29Z</time>
      </trkpt>
      <trkpt lat="50.653790" lon="6.447168">
        <ele>394.760000</ele>
        <time>2009-03-01T10:26:44Z</time>
      </trkpt>
      <trkpt lat="50.653798" lon="6.447175">
        <ele>394.760000</ele>
        <time>2009-03-01T10:26:45Z</time>
      </trkpt>
      <trkpt lat="50.653874" lon="6.447243">
        <ele>395.240000</ele>
        <time>2009-03-01T10:26:57Z</time>
      </trkpt>
      <trkpt lat="50.653877" lon="6.447257">
        <ele>394.760000</ele>
        <time>2009-03-01T10:27:52Z</time>
      </trkpt>
      <trkpt lat="50.653884" lon="6.447240">
        <ele>395.240000</ele>
        <time>2009-03-01T10:28:00Z</time>
      </trkpt>
      <trkpt lat="50.653961" lon="6.447213">
        <ele>394.280000</ele>
        <time>2009-03-01T10:28:06Z</time>
      </trkpt>
      <trkpt lat="50.654025" lon="6.447158">
        <ele>394.760000</ele>
        <time>2009-03-01T10:28:12Z</time>
      </trkpt>
      <trkpt lat="50.654123" lon="6.447076">
        <ele>395.240000</ele>
        <time>2009-03-01T10:28:21Z</time>
      </trkpt>
      <trkpt lat="50.654321" lon="6.446899">
        <ele>395.240000</ele>
        <time>2009-03-01T10:28:35Z</time>
      </trkpt>
      <trkpt lat="50.654376" lon="6.446887">
        <ele>395.720000</ele>
        <time>2009-03-01T10:28:39Z</time>
      </trkpt>
      <trkpt lat="50.654571" lon="6.446803">
        <ele>396.200000</ele>
        <time>2009-03-01T10:28:54Z</time>
      </trkpt>
      <trkpt lat="50.654616" lon="6.446753">
        <ele>396.200000</ele>
        <time>2009-03-01T10:28:59Z</time>
      </trkpt>
      <trkpt lat="50.654646" lon="6.446691">
        <ele>396.680000</ele>
        <time>2009-03-01T10:29:03Z</time>
      </trkpt>
      <trkpt lat="50.654666" lon="6.446679">
        <ele>396.680000</ele>
        <time>2009-03-01T10:29:05Z</time>
      </trkpt>
      <trkpt lat="50.654698" lon="6.446616">
        <ele>396.680000</ele>
        <time>2009-03-01T10:29:09Z</time>
      </trkpt>
      <trkpt lat="50.654771" lon="6.446604">
        <ele>396.680000</ele>
        <time>2009-03-01T10:29:14Z</time>
      </trkpt>
      <trkpt lat="50.654876" lon="6.446593">
        <ele>396.680000</ele>
        <time>2009-03-01T10:29:27Z</time>
      </trkpt>
      <trkpt lat="50.654957" lon="6.446410">
        <ele>397.160000</ele>
        <time>2009-03-01T10:29:40Z</time>
      </trkpt>
      <trkpt lat="50.655056" lon="6.446280">
        <ele>398.120000</ele>
        <time>2009-03-01T10:29:53Z</time>
      </trkpt>
      <trkpt lat="50.655218" lon="6.446099">
        <ele>397.640000</ele>
        <time>2009-03-01T10:30:11Z</time>
      </trkpt>
      <trkpt lat="50.655341" lon="6.445758">
        <ele>398.600000</ele>
        <time>2009-03-01T10:30:29Z</time>
      </trkpt>
      <trkpt lat="50.655434" lon="6.445505">
        <ele>399.080000</ele>
        <time>2009-03-01T10:30:42Z</time>
      </trkpt>
      <trkpt lat="50.655492" lon="6.445252">
        <ele>399.570000</ele>
        <time>2009-03-01T10:30:56Z</time>
      </trkpt>
      <trkpt lat="50.655490" lon="6.445087">
        <ele>400.050000</ele>
        <time>2009-03-01T10:31:04Z</time>
      </trkpt>
      <trkpt lat="50.655411" lon="6.444751">
        <ele>400.530000</ele>
        <time>2009-03-01T10:31:19Z</time>
      </trkpt>
      <trkpt lat="50.655342" lon="6.444491">
        <ele>401.010000</ele>
        <time>2009-03-01T10:31:31Z</time>
      </trkpt>
      <trkpt lat="50.655308" lon="6.444403">
        <ele>401.490000</ele>
        <time>2009-03-01T10:31:36Z</time>
      </trkpt>
      <trkpt lat="50.655234" lon="6.444045">
        <ele>402.450000</ele>
        <time>2009-03-01T10:31:54Z</time>
      </trkpt>
      <trkpt lat="50.655195" lon="6.443829">
        <ele>402.450000</ele>
        <time>2009-03-01T10:32:08Z</time>
      </trkpt>
      <trkpt lat="50.655153" lon="6.443483">
        <ele>403.410000</ele>
        <time>2009-03-01T10:32:23Z</time>
      </trkpt>
      <trkpt lat="50.655061" lon="6.443288">
        <ele>403.410000</ele>
        <time>2009-03-01T10:32:34Z</time>
      </trkpt>
      <trkpt lat="50.655039" lon="6.443233">
        <ele>403.410000</ele>
        <time>2009-03-01T10:32:37Z</time>
      </trkpt>
      <trkpt lat="50.655007" lon="6.443113">
        <ele>402.930000</ele>
        <time>2009-03-01T10:32:43Z</time>
      </trkpt>
      <trkpt lat="50.654983" lon="6.442828">
        <ele>403.890000</ele>
        <time>2009-03-01T10:32:57Z</time>
      </trkpt>
      <trkpt lat="50.654932" lon="6.442433">
        <ele>403.410000</ele>
        <time>2009-03-01T10:33:13Z</time>
      </trkpt>
      <trkpt lat="50.655056" lon="6.442281">
        <ele>402.450000</ele>
        <time>2009-03-01T10:33:25Z</time>
      </trkpt>
      <trkpt lat="50.655225" lon="6.442138">
        <ele>401.010000</ele>
        <time>2009-03-01T10:33:40Z</time>
      </trkpt>
      <trkpt lat="50.655445" lon="6.441888">
        <ele>399.570000</ele>
        <time>2009-03-01T10:33:57Z</time>
      </trkpt>
      <trkpt lat="50.655449" lon="6.441875">
        <ele>400.050000</ele>
        <time>2009-03-01T10:33:58Z</time>
      </trkpt>
      <trkpt lat="50.655595" lon="6.441732">
        <ele>399.570000</ele>
        <time>2009-03-01T10:34:10Z</time>
      </trkpt>
      <trkpt lat="50.655754" lon="6.441584">
        <ele>398.600000</ele>
        <time>2009-03-01T10:34:23Z</time>
      </trkpt>
      <trkpt lat="50.655918" lon="6.441417">
        <ele>397.160000</ele>
        <time>2009-03-01T10:34:38Z</time>
      </trkpt>
      <trkpt lat="50.655929" lon="6.441332">
        <ele>397.160000</ele>
        <time>2009-03-01T10:34:42Z</time>
      </trkpt>
      <trkpt lat="50.655967" lon="6.441117">
        <ele>397.160000</ele>
        <time>2009-03-01T10:34:55Z</time>
      </trkpt>
      <trkpt lat="50.655969" lon="6.440742">
        <ele>397.160000</ele>
        <time>2009-03-01T10:35:08Z</time>
      </trkpt>
      <trkpt lat="50.655972" lon="6.440497">
        <ele>397.640000</ele>
        <time>2009-03-01T10:35:24Z</time>
      </trkpt>
      <trkpt lat="50.655984" lon="6.440128">
        <ele>397.640000</ele>
        <time>2009-03-01T10:35:39Z</time>
      </trkpt>
      <trkpt lat="50.655975" lon="6.439882">
        <ele>398.600000</ele>
        <time>2009-03-01T10:35:52Z</time>
      </trkpt>
      <trkpt lat="50.655983" lon="6.439482">
        <ele>399.080000</ele>
        <time>2009-03-01T10:36:08Z</time>
      </trkpt>
      <trkpt lat="50.656001" lon="6.439273">
        <ele>399.570000</ele>
        <time>2009-03-01T10:36:18Z</time>
      </trkpt>
      <trkpt lat="50.655989" lon="6.439232">
        <ele>400.050000</ele>
        <time>2009-03-01T10:36:20Z</time>
      </trkpt>
      <trkpt lat="50.655996" lon="6.439072">
        <ele>399.570000</ele>
        <time>2009-03-01T10:36:27Z</time>
      </trkpt>
      <trkpt lat="50.656012" lon="6.438791">
        <ele>400.050000</ele>
        <time>2009-03-01T10:36:40Z</time>
      </trkpt>
      <trkpt lat="50.656022" lon="6.438626">
        <ele>400.050000</ele>
        <time>2009-03-01T10:36:47Z</time>
      </trkpt>
      <trkpt lat="50.656008" lon="6.438505">
        <ele>399.570000</ele>
        <time>2009-03-01T10:36:53Z</time>
      </trkpt>
      <trkpt lat="50.656003" lon="6.438375">
        <ele>399.570000</ele>
        <time>2009-03-01T10:36:59Z</time>
      </trkpt>
      <trkpt lat="50.656001" lon="6.438274">
        <ele>399.570000</ele>
        <time>2009-03-01T10:37:03Z</time>
      </trkpt>
      <trkpt lat="50.655973" lon="6.437925">
        <ele>399.570000</ele>
        <time>2009-03-01T10:37:16Z</time>
      </trkpt>
      <trkpt lat="50.655988" lon="6.437771">
        <ele>399.570000</ele>
        <time>2009-03-01T10:37:23Z</time>
      </trkpt>
      <trkpt lat="50.656004" lon="6.437678">
        <ele>399.570000</ele>
        <time>2009-03-01T10:37:27Z</time>
      </trkpt>
      <trkpt lat="50.656001" lon="6.437423">
        <ele>399.570000</ele>
        <time>2009-03-01T10:37:39Z</time>
      </trkpt>
      <trkpt lat="50.656006" lon="6.437401">
        <ele>399.570000</ele>
        <time>2009-03-01T10:37:40Z</time>
      </trkpt>
      <trkpt lat="50.655995" lon="6.437297">
        <ele>399.570000</ele>
        <time>2009-03-01T10:37:45Z</time>
      </trkpt>
      <trkpt lat="50.656003" lon="6.437149">
        <ele>400.050000</ele>
        <time>2009-03-01T10:37:52Z</time>
      </trkpt>
      <trkpt lat="50.656012" lon="6.436870">
        <ele>400.050000</ele>
        <time>2009-03-01T10:38:05Z</time>
      </trkpt>
      <trkpt lat="50.656009" lon="6.436784">
        <ele>400.050000</ele>
        <time>2009-03-01T10:38:09Z</time>
      </trkpt>
      <trkpt lat="50.656014" lon="6.436625">
        <ele>400.050000</ele>
        <time>2009-03-01T10:38:15Z</time>
      </trkpt>
      <trkpt lat="50.655999" lon="6.436301">
        <ele>401.010000</ele>
        <time>2009-03-01T10:38:29Z</time>
      </trkpt>
      <trkpt lat="50.656000" lon="6.436143">
        <ele>401.970000</ele>
        <time>2009-03-01T10:38:36Z</time>
      </trkpt>
      <trkpt lat="50.656011" lon="6.435776">
        <ele>402.450000</ele>
        <time>2009-03-01T10:38:52Z</time>
      </trkpt>
      <trkpt lat="50.656018" lon="6.435484">
        <ele>402.930000</ele>
        <time>2009-03-01T10:39:07Z</time>
      </trkpt>
      <trkpt lat="50.656033" lon="6.435141">
        <ele>403.410000</ele>
        <time>2009-03-01T10:39:23Z</time>
      </trkpt>
      <trkpt lat="50.656168" lon="6.434968">
        <ele>402.930000</ele>
        <time>2009-03-01T10:39:37Z</time>
      </trkpt>
      <trkpt lat="50.656217" lon="6.434869">
        <ele>402.930000</ele>
        <time>2009-03-01T10:39:43Z</time>
      </trkpt>
      <trkpt lat="50.656257" lon="6.434723">
        <ele>402.930000</ele>
        <time>2009-03-01T10:39:52Z</time>
      </trkpt>
      <trkpt lat="50.656340" lon="6.434604">
        <ele>403.410000</ele>
        <time>2009-03-01T10:40:02Z</time>
      </trkpt>
      <trkpt lat="50.656385" lon="6.434560">
        <ele>403.410000</ele>
        <time>2009-03-01T10:40:16Z</time>
      </trkpt>
      <trkpt lat="50.656422" lon="6.434551">
        <ele>402.930000</ele>
        <time>2009-03-01T10:42:32Z</time>
      </trkpt>
      <trkpt lat="50.656402" lon="6.434604">
        <ele>402.930000</ele>
        <time>2009-03-01T10:42:52Z</time>
      </trkpt>
      <trkpt lat="50.656358" lon="6.434555">
        <ele>403.410000</ele>
        <time>2009-03-01T10:43:18Z</time>
      </trkpt>
      <trkpt lat="50.656364" lon="6.434548">
        <ele>402.930000</ele>
        <time>2009-03-01T10:43:28Z</time>
      </trkpt>
      <trkpt lat="50.656353" lon="6.434491">
        <ele>403.410000</ele>
        <time>2009-03-01T10:43:32Z</time>
      </trkpt>
      <trkpt lat="50.656261" lon="6.434326">
        <ele>404.370000</ele>
        <time>2009-03-01T10:43:42Z</time>
      </trkpt>
      <trkpt lat="50.656157" lon="6.434145">
        <ele>404.850000</ele>
        <time>2009-03-01T10:43:54Z</time>
      </trkpt>
      <trkpt lat="50.656149" lon="6.434129">
        <ele>405.330000</ele>
        <time>2009-03-01T10:43:55Z</time>
      </trkpt>
      <trkpt lat="50.656202" lon="6.433861">
        <ele>404.850000</ele>
        <time>2009-03-01T10:44:08Z</time>
      </trkpt>
      <trkpt lat="50.656358" lon="6.433642">
        <ele>404.850000</ele>
        <time>2009-03-01T10:44:23Z</time>
      </trkpt>
      <trkpt lat="50.656420" lon="6.433569">
        <ele>404.850000</ele>
        <time>2009-03-01T10:44:29Z</time>
      </trkpt>
      <trkpt lat="50.656538" lon="6.433345">
        <ele>405.330000</ele>
        <time>2009-03-01T10:44:41Z</time>
      </trkpt>
      <trkpt lat="50.656600" lon="6.433198">
        <ele>405.330000</ele>
        <time>2009-03-01T10:44:49Z</time>
      </trkpt>
      <trkpt lat="50.656727" lon="6.432991">
        <ele>405.330000</ele>
        <time>2009-03-01T10:45:04Z</time>
      </trkpt>
      <trkpt lat="50.656853" lon="6.432785">
        <ele>405.330000</ele>
        <time>2009-03-01T10:45:16Z</time>
      </trkpt>
      <trkpt lat="50.656959" lon="6.432541">
        <ele>406.770000</ele>
        <time>2009-03-01T10:45:30Z</time>
      </trkpt>
      <trkpt lat="50.657029" lon="6.432449">
        <ele>406.770000</ele>
        <time>2009-03-01T10:45:37Z</time>
      </trkpt>
      <trkpt lat="50.657073" lon="6.432383">
        <ele>407.260000</ele>
        <time>2009-03-01T10:45:42Z</time>
      </trkpt>
      <trkpt lat="50.657211" lon="6.432080">
        <ele>408.700000</ele>
        <time>2009-03-01T10:45:59Z</time>
      </trkpt>
      <trkpt lat="50.657231" lon="6.431751">
        <ele>409.660000</ele>
        <time>2009-03-01T10:46:13Z</time>
      </trkpt>
      <trkpt lat="50.657243" lon="6.431480">
        <ele>410.140000</ele>
        <time>2009-03-01T10:46:28Z</time>
      </trkpt>
      <trkpt lat="50.657255" lon="6.431155">
        <ele>410.620000</ele>
        <time>2009-03-01T10:46:42Z</time>
      </trkpt>
      <trkpt lat="50.657256" lon="6.430944">
        <ele>411.100000</ele>
        <time>2009-03-01T10:46:50Z</time>
      </trkpt>
      <trkpt lat="50.657268" lon="6.430888">
        <ele>411.100000</ele>
        <time>2009-03-01T10:46:54Z</time>
      </trkpt>
      <trkpt lat="50.657280" lon="6.430666">
        <ele>411.580000</ele>
        <time>2009-03-01T10:47:04Z</time>
      </trkpt>
      <trkpt lat="50.657269" lon="6.430575">
        <ele>411.580000</ele>
        <time>2009-03-01T10:47:08Z</time>
      </trkpt>
      <trkpt lat="50.657280" lon="6.430296">
        <ele>412.060000</ele>
        <time>2009-03-01T10:47:22Z</time>
      </trkpt>
      <trkpt lat="50.657281" lon="6.429998">
        <ele>412.540000</ele>
        <time>2009-03-01T10:47:35Z</time>
      </trkpt>
      <trkpt lat="50.657285" lon="6.429711">
        <ele>412.540000</ele>
        <time>2009-03-01T10:47:48Z</time>
      </trkpt>
      <trkpt lat="50.657299" lon="6.429401">
        <ele>412.540000</ele>
        <time>2009-03-01T10:48:01Z</time>
      </trkpt>
      <trkpt lat="50.657303" lon="6.429307">
        <ele>413.020000</ele>
        <time>2009-03-01T10:48:05Z</time>
      </trkpt>
      <trkpt lat="50.657307" lon="6.429115">
        <ele>413.020000</ele>
        <time>2009-03-01T10:48:14Z</time>
      </trkpt>
      <trkpt lat="50.657324" lon="6.428848">
        <ele>412.060000</ele>
        <time>2009-03-01T10:48:28Z</time>
      </trkpt>
      <trkpt lat="50.657311" lon="6.428748">
        <ele>412.060000</ele>
        <time>2009-03-01T10:48:33Z</time>
      </trkpt>
      <trkpt lat="50.657238" lon="6.428413">
        <ele>411.100000</ele>
        <time>2009-03-01T10:48:49Z</time>
      </trkpt>
      <trkpt lat="50.657137" lon="6.428093">
        <ele>410.620000</ele>
        <time>2009-03-01T10:49:05Z</time>
      </trkpt>
      <trkpt lat="50.657083" lon="6.427937">
        <ele>410.620000</ele>
        <time>2009-03-01T10:49:13Z</time>
      </trkpt>
      <trkpt lat="50.657024" lon="6.427835">
        <ele>411.100000</ele>
        <time>2009-03-01T10:49:19Z</time>
      </trkpt>
      <trkpt lat="50.657012" lon="6.427790">
        <ele>411.100000</ele>
        <time>2009-03-01T10:49:21Z</time>
      </trkpt>
      <trkpt lat="50.656973" lon="6.427475">
        <ele>412.060000</ele>
        <time>2009-03-01T10:49:33Z</time>
      </trkpt>
      <trkpt lat="50.656936" lon="6.427405">
        <ele>412.540000</ele>
        <time>2009-03-01T10:49:38Z</time>
      </trkpt>
      <trkpt lat="50.656849" lon="6.427115">
        <ele>412.540000</ele>
        <time>2009-03-01T10:49:52Z</time>
      </trkpt>
      <trkpt lat="50.656774" lon="6.426824">
        <ele>413.020000</ele>
        <time>2009-03-01T10:50:06Z</time>
      </trkpt>
      <trkpt lat="50.656696" lon="6.426519">
        <ele>413.020000</ele>
        <time>2009-03-01T10:50:22Z</time>
      </trkpt>
      <trkpt lat="50.656616" lon="6.426204">
        <ele>412.540000</ele>
        <time>2009-03-01T10:50:37Z</time>
      </trkpt>
      <trkpt lat="50.656547" lon="6.425978">
        <ele>413.500000</ele>
        <time>2009-03-01T10:50:49Z</time>
      </trkpt>
      <trkpt lat="50.656501" lon="6.425690">
        <ele>413.500000</ele>
        <time>2009-03-01T10:51:02Z</time>
      </trkpt>
      <trkpt lat="50.656442" lon="6.425425">
        <ele>413.500000</ele>
        <time>2009-03-01T10:51:14Z</time>
      </trkpt>
      <trkpt lat="50.656422" lon="6.425366">
        <ele>414.470000</ele>
        <time>2009-03-01T10:51:18Z</time>
      </trkpt>
      <trkpt lat="50.656384" lon="6.425313">
        <ele>413.020000</ele>
        <time>2009-03-01T10:51:31Z</time>
      </trkpt>
      <trkpt lat="50.656422" lon="6.424924">
        <ele>413.020000</ele>
        <time>2009-03-01T10:51:48Z</time>
      </trkpt>
      <trkpt lat="50.656416" lon="6.424590">
        <ele>412.540000</ele>
        <time>2009-03-01T10:52:02Z</time>
      </trkpt>
      <trkpt lat="50.656474" lon="6.424361">
        <ele>411.580000</ele>
        <time>2009-03-01T10:52:13Z</time>
      </trkpt>
      <trkpt lat="50.656536" lon="6.424020">
        <ele>411.580000</ele>
        <time>2009-03-01T10:52:27Z</time>
      </trkpt>
      <trkpt lat="50.656556" lon="6.423850">
        <ele>411.580000</ele>
        <time>2009-03-01T10:52:35Z</time>
      </trkpt>
      <trkpt lat="50.656565" lon="6.423773">
        <ele>412.060000</ele>
        <time>2009-03-01T10:52:39Z</time>
      </trkpt>
      <trkpt lat="50.656652" lon="6.423454">
        <ele>413.500000</ele>
        <time>2009-03-01T10:52:54Z</time>
      </trkpt>
      <trkpt lat="50.656717" lon="6.423190">
        <ele>414.470000</ele>
        <time>2009-03-01T10:53:07Z</time>
      </trkpt>
      <trkpt lat="50.656789" lon="6.422819">
        <ele>415.910000</ele>
        <time>2009-03-01T10:53:24Z</time>
      </trkpt>
      <trkpt lat="50.656818" lon="6.422484">
        <ele>417.350000</ele>
        <time>2009-03-01T10:53:38Z</time>
      </trkpt>
      <trkpt lat="50.656839" lon="6.422195">
        <ele>418.790000</ele>
        <time>2009-03-01T10:53:52Z</time>
      </trkpt>
      <trkpt lat="50.656845" lon="6.421979">
        <ele>419.270000</ele>
        <time>2009-03-01T10:54:02Z</time>
      </trkpt>
      <trkpt lat="50.656876" lon="6.421882">
        <ele>419.750000</ele>
        <time>2009-03-01T10:54:07Z</time>
      </trkpt>
      <trkpt lat="50.656914" lon="6.421574">
        <ele>420.710000</ele>
        <time>2009-03-01T10:54:21Z</time>
      </trkpt>
      <trkpt lat="50.656930" lon="6.421479">
        <ele>420.230000</ele>
        <time>2009-03-01T10:54:35Z</time>
      </trkpt>
      <trkpt lat="50.656955" lon="6.421452">
        <ele>420.230000</ele>
        <time>2009-03-01T10:54:58Z</time>
      </trkpt>
      <trkpt lat="50.656961" lon="6.421401">
        <ele>420.710000</ele>
        <time>2009-03-01T10:55:13Z</time>
      </trkpt>
      <trkpt lat="50.656971" lon="6.421381">
        <ele>420.710000</ele>
        <time>2009-03-01T10:56:05Z</time>
      </trkpt>
      <trkpt lat="50.656983" lon="6.421287">
        <ele>421.190000</ele>
        <time>2009-03-01T10:56:09Z</time>
      </trkpt>
      <trkpt lat="50.657006" lon="6.421054">
        <ele>421.680000</ele>
        <time>2009-03-01T10:56:19Z</time>
      </trkpt>
      <trkpt lat="50.657036" lon="6.420755">
        <ele>422.640000</ele>
        <time>2009-03-01T10:56:32Z</time>
      </trkpt>
      <trkpt lat="50.657049" lon="6.420593">
        <ele>423.120000</ele>
        <time>2009-03-01T10:56:42Z</time>
      </trkpt>
      <trkpt lat="50.657074" lon="6.420509">
        <ele>423.120000</ele>
        <time>2009-03-01T10:56:46Z</time>
      </trkpt>
      <trkpt lat="50.657074" lon="6.420391">
        <ele>423.120000</ele>
        <time>2009-03-01T10:56:51Z</time>
      </trkpt>
      <trkpt lat="50.657097" lon="6.420315">
        <ele>423.600000</ele>
        <time>2009-03-01T10:56:55Z</time>
      </trkpt>
      <trkpt lat="50.657089" lon="6.420233">
        <ele>424.080000</ele>
        <time>2009-03-01T10:56:59Z</time>
      </trkpt>
      <trkpt lat="50.657107" lon="6.420147">
        <ele>424.080000</ele>
        <time>2009-03-01T10:57:03Z</time>
      </trkpt>
      <trkpt lat="50.657116" lon="6.420044">
        <ele>423.600000</ele>
        <time>2009-03-01T10:57:07Z</time>
      </trkpt>
      <trkpt lat="50.657150" lon="6.419694">
        <ele>423.600000</ele>
        <time>2009-03-01T10:57:22Z</time>
      </trkpt>
      <trkpt lat="50.657188" lon="6.419368">
        <ele>424.080000</ele>
        <time>2009-03-01T10:57:36Z</time>
      </trkpt>
      <trkpt lat="50.657195" lon="6.419343">
        <ele>424.080000</ele>
        <time>2009-03-01T10:57:38Z</time>
      </trkpt>
      <trkpt lat="50.657222" lon="6.419207">
        <ele>424.080000</ele>
        <time>2009-03-01T10:57:44Z</time>
      </trkpt>
      <trkpt lat="50.657237" lon="6.419042">
        <ele>424.560000</ele>
        <time>2009-03-01T10:57:52Z</time>
      </trkpt>
      <trkpt lat="50.657287" lon="6.418774">
        <ele>424.080000</ele>
        <time>2009-03-01T10:58:06Z</time>
      </trkpt>
      <trkpt lat="50.657313" lon="6.418533">
        <ele>423.600000</ele>
        <time>2009-03-01T10:58:17Z</time>
      </trkpt>
      <trkpt lat="50.657337" lon="6.418287">
        <ele>423.120000</ele>
        <time>2009-03-01T10:58:26Z</time>
      </trkpt>
      <trkpt lat="50.657393" lon="6.418016">
        <ele>423.120000</ele>
        <time>2009-03-01T10:58:39Z</time>
      </trkpt>
      <trkpt lat="50.657415" lon="6.417920">
        <ele>423.600000</ele>
        <time>2009-03-01T10:58:44Z</time>
      </trkpt>
      <trkpt lat="50.657498" lon="6.417597">
        <ele>423.120000</ele>
        <time>2009-03-01T10:58:59Z</time>
      </trkpt>
      <trkpt lat="50.657528" lon="6.417572">
        <ele>422.640000</ele>
        <time>2009-03-01T10:59:02Z</time>
      </trkpt>
      <trkpt lat="50.657551" lon="6.417535">
        <ele>422.640000</ele>
        <time>2009-03-01T10:59:05Z</time>
      </trkpt>
      <trkpt lat="50.657696" lon="6.417348">
        <ele>422.640000</ele>
        <time>2009-03-01T10:59:19Z</time>
      </trkpt>
      <trkpt lat="50.657700" lon="6.417346">
        <ele>422.160000</ele>
        <time>2009-03-01T10:59:20Z</time>
      </trkpt>
      <trkpt lat="50.657783" lon="6.417013">
        <ele>421.680000</ele>
        <time>2009-03-01T10:59:36Z</time>
      </trkpt>
      <trkpt lat="50.657867" lon="6.416799">
        <ele>422.160000</ele>
        <time>2009-03-01T10:59:45Z</time>
      </trkpt>
      <trkpt lat="50.657954" lon="6.416565">
        <ele>421.680000</ele>
        <time>2009-03-01T10:59:57Z</time>
      </trkpt>
      <trkpt lat="50.658042" lon="6.416365">
        <ele>421.680000</ele>
        <time>2009-03-01T11:00:10Z</time>
      </trkpt>
      <trkpt lat="50.658050" lon="6.416358">
        <ele>422.160000</ele>
        <time>2009-03-01T11:00:11Z</time>
      </trkpt>
      <trkpt lat="50.658149" lon="6.416075">
        <ele>422.160000</ele>
        <time>2009-03-01T11:00:25Z</time>
      </trkpt>
      <trkpt lat="50.658232" lon="6.415856">
        <ele>422.160000</ele>
        <time>2009-03-01T11:00:38Z</time>
      </trkpt>
      <trkpt lat="50.658288" lon="6.415731">
        <ele>422.160000</ele>
        <time>2009-03-01T11:00:44Z</time>
      </trkpt>
      <trkpt lat="50.658372" lon="6.415499">
        <ele>422.160000</ele>
        <time>2009-03-01T11:00:57Z</time>
      </trkpt>
      <trkpt lat="50.658419" lon="6.415385">
        <ele>422.160000</ele>
        <time>2009-03-01T11:01:03Z</time>
      </trkpt>
      <trkpt lat="50.658459" lon="6.415116">
        <ele>421.680000</ele>
        <time>2009-03-01T11:01:16Z</time>
      </trkpt>
      <trkpt lat="50.658603" lon="6.414746">
        <ele>423.120000</ele>
        <time>2009-03-01T11:01:35Z</time>
      </trkpt>
      <trkpt lat="50.658592" lon="6.414486">
        <ele>423.600000</ele>
        <time>2009-03-01T11:01:46Z</time>
      </trkpt>
      <trkpt lat="50.658661" lon="6.414231">
        <ele>424.080000</ele>
        <time>2009-03-01T11:01:58Z</time>
      </trkpt>
      <trkpt lat="50.658685" lon="6.413965">
        <ele>424.560000</ele>
        <time>2009-03-01T11:02:11Z</time>
      </trkpt>
      <trkpt lat="50.658699" lon="6.413929">
        <ele>424.560000</ele>
        <time>2009-03-01T11:02:16Z</time>
      </trkpt>
      <trkpt lat="50.658987" lon="6.414090">
        <ele>423.120000</ele>
        <time>2009-03-01T11:02:33Z</time>
      </trkpt>
      <trkpt lat="50.659185" lon="6.414271">
        <ele>423.600000</ele>
        <time>2009-03-01T11:02:48Z</time>
      </trkpt>
      <trkpt lat="50.659350" lon="6.414426">
        <ele>423.600000</ele>
        <time>2009-03-01T11:03:00Z</time>
      </trkpt>
      <trkpt lat="50.659534" lon="6.414545">
        <ele>425.040000</ele>
        <time>2009-03-01T11:03:15Z</time>
      </trkpt>
      <trkpt lat="50.659704" lon="6.414694">
        <ele>425.520000</ele>
        <time>2009-03-01T11:03:29Z</time>
      </trkpt>
      <trkpt lat="50.659846" lon="6.414843">
        <ele>426.000000</ele>
        <time>2009-03-01T11:03:40Z</time>
      </trkpt>
      <trkpt lat="50.659965" lon="6.414953">
        <ele>426.480000</ele>
        <time>2009-03-01T11:03:52Z</time>
      </trkpt>
      <trkpt lat="50.660090" lon="6.415029">
        <ele>426.480000</ele>
        <time>2009-03-01T11:04:01Z</time>
      </trkpt>
      <trkpt lat="50.660141" lon="6.415055">
        <ele>426.480000</ele>
        <time>2009-03-01T11:04:05Z</time>
      </trkpt>
      <trkpt lat="50.660272" lon="6.415231">
        <ele>426.000000</ele>
        <time>2009-03-01T11:04:17Z</time>
      </trkpt>
      <trkpt lat="50.660412" lon="6.415416">
        <ele>426.000000</ele>
        <time>2009-03-01T11:04:30Z</time>
      </trkpt>
      <trkpt lat="50.660545" lon="6.415611">
        <ele>425.520000</ele>
        <time>2009-03-01T11:04:43Z</time>
      </trkpt>
      <trkpt lat="50.660606" lon="6.415655">
        <ele>425.520000</ele>
        <time>2009-03-01T11:04:48Z</time>
      </trkpt>
      <trkpt lat="50.660731" lon="6.415771">
        <ele>425.040000</ele>
        <time>2009-03-01T11:04:55Z</time>
      </trkpt>
      <trkpt lat="50.660886" lon="6.415940">
        <ele>424.560000</ele>
        <time>2009-03-01T11:05:09Z</time>
      </trkpt>
      <trkpt lat="50.661063" lon="6.416144">
        <ele>423.600000</ele>
        <time>2009-03-01T11:05:25Z</time>
      </trkpt>
      <trkpt lat="50.661230" lon="6.416261">
        <ele>423.120000</ele>
        <time>2009-03-01T11:05:39Z</time>
      </trkpt>
      <trkpt lat="50.661313" lon="6.416110">
        <ele>423.120000</ele>
        <time>2009-03-01T11:05:49Z</time>
      </trkpt>
      <trkpt lat="50.661394" lon="6.415798">
        <ele>423.600000</ele>
        <time>2009-03-01T11:06:03Z</time>
      </trkpt>
      <trkpt lat="50.661506" lon="6.415510">
        <ele>424.080000</ele>
        <time>2009-03-01T11:06:18Z</time>
      </trkpt>
      <trkpt lat="50.661547" lon="6.415450">
        <ele>424.080000</ele>
        <time>2009-03-01T11:06:23Z</time>
      </trkpt>
      <trkpt lat="50.661594" lon="6.415338">
        <ele>424.560000</ele>
        <time>2009-03-01T11:06:29Z</time>
      </trkpt>
      <trkpt lat="50.661621" lon="6.415258">
        <ele>424.560000</ele>
        <time>2009-03-01T11:06:33Z</time>
      </trkpt>
      <trkpt lat="50.661657" lon="6.415153">
        <ele>424.560000</ele>
        <time>2009-03-01T11:06:39Z</time>
      </trkpt>
      <trkpt lat="50.661763" lon="6.414923">
        <ele>425.040000</ele>
        <time>2009-03-01T11:06:54Z</time>
      </trkpt>
      <trkpt lat="50.661770" lon="6.414900">
        <ele>425.040000</ele>
        <time>2009-03-01T11:06:55Z</time>
      </trkpt>
      <trkpt lat="50.661834" lon="6.414808">
        <ele>424.560000</ele>
        <time>2009-03-01T11:07:00Z</time>
      </trkpt>
      <trkpt lat="50.661980" lon="6.414585">
        <ele>425.520000</ele>
        <time>2009-03-01T11:07:15Z</time>
      </trkpt>
      <trkpt lat="50.662172" lon="6.414542">
        <ele>426.960000</ele>
        <time>2009-03-01T11:07:29Z</time>
      </trkpt>
      <trkpt lat="50.662351" lon="6.414472">
        <ele>427.920000</ele>
        <time>2009-03-01T11:07:41Z</time>
      </trkpt>
      <trkpt lat="50.662447" lon="6.414433">
        <ele>428.400000</ele>
        <time>2009-03-01T11:07:49Z</time>
      </trkpt>
      <trkpt lat="50.662575" lon="6.414392">
        <ele>428.890000</ele>
        <time>2009-03-01T11:07:58Z</time>
      </trkpt>
      <trkpt lat="50.662753" lon="6.414259">
        <ele>429.370000</ele>
        <time>2009-03-01T11:08:09Z</time>
      </trkpt>
      <trkpt lat="50.662817" lon="6.414064">
        <ele>429.850000</ele>
        <time>2009-03-01T11:08:24Z</time>
      </trkpt>
      <trkpt lat="50.662970" lon="6.413983">
        <ele>429.850000</ele>
        <time>2009-03-01T11:08:37Z</time>
      </trkpt>
      <trkpt lat="50.663148" lon="6.413955">
        <ele>429.850000</ele>
        <time>2009-03-01T11:08:50Z</time>
      </trkpt>
      <trkpt lat="50.663370" lon="6.413889">
        <ele>429.850000</ele>
        <time>2009-03-01T11:09:04Z</time>
      </trkpt>
      <trkpt lat="50.663556" lon="6.413874">
        <ele>429.370000</ele>
        <time>2009-03-01T11:09:19Z</time>
      </trkpt>
      <trkpt lat="50.663742" lon="6.413784">
        <ele>429.370000</ele>
        <time>2009-03-01T11:09:33Z</time>
      </trkpt>
      <trkpt lat="50.663946" lon="6.413831">
        <ele>428.890000</ele>
        <time>2009-03-01T11:09:46Z</time>
      </trkpt>
      <trkpt lat="50.664125" lon="6.413904">
        <ele>428.400000</ele>
        <time>2009-03-01T11:10:00Z</time>
      </trkpt>
      <trkpt lat="50.664357" lon="6.413939">
        <ele>427.440000</ele>
        <time>2009-03-01T11:10:15Z</time>
      </trkpt>
      <trkpt lat="50.664557" lon="6.414016">
        <ele>426.480000</ele>
        <time>2009-03-01T11:10:29Z</time>
      </trkpt>
      <trkpt lat="50.664730" lon="6.414022">
        <ele>426.480000</ele>
        <time>2009-03-01T11:10:42Z</time>
      </trkpt>
      <trkpt lat="50.664770" lon="6.414037">
        <ele>426.000000</ele>
        <time>2009-03-01T11:10:45Z</time>
      </trkpt>
      <trkpt lat="50.664953" lon="6.413991">
        <ele>425.040000</ele>
        <time>2009-03-01T11:10:58Z</time>
      </trkpt>
      <trkpt lat="50.665075" lon="6.414030">
        <ele>424.080000</ele>
        <time>2009-03-01T11:11:12Z</time>
      </trkpt>
      <trkpt lat="50.665082" lon="6.414016">
        <ele>424.560000</ele>
        <time>2009-03-01T11:11:16Z</time>
      </trkpt>
      <trkpt lat="50.665253" lon="6.414000">
        <ele>425.040000</ele>
        <time>2009-03-01T11:11:29Z</time>
      </trkpt>
      <trkpt lat="50.665288" lon="6.414005">
        <ele>425.520000</ele>
        <time>2009-03-01T11:11:32Z</time>
      </trkpt>
      <trkpt lat="50.665471" lon="6.413951">
        <ele>425.040000</ele>
        <time>2009-03-01T11:11:47Z</time>
      </trkpt>
      <trkpt lat="50.665602" lon="6.413922">
        <ele>425.040000</ele>
        <time>2009-03-01T11:11:56Z</time>
      </trkpt>
      <trkpt lat="50.665818" lon="6.413753">
        <ele>424.560000</ele>
        <time>2009-03-01T11:12:13Z</time>
      </trkpt>
      <trkpt lat="50.665981" lon="6.413501">
        <ele>423.120000</ele>
        <time>2009-03-01T11:12:28Z</time>
      </trkpt>
      <trkpt lat="50.666057" lon="6.413243">
        <ele>421.680000</ele>
        <time>2009-03-01T11:12:41Z</time>
      </trkpt>
      <trkpt lat="50.666006" lon="6.412979">
        <ele>422.160000</ele>
        <time>2009-03-01T11:12:55Z</time>
      </trkpt>
      <trkpt lat="50.665836" lon="6.412766">
        <ele>423.120000</ele>
        <time>2009-03-01T11:13:09Z</time>
      </trkpt>
      <trkpt lat="50.665831" lon="6.412750">
        <ele>423.120000</ele>
        <time>2009-03-01T11:13:10Z</time>
      </trkpt>
      <trkpt lat="50.665766" lon="6.412621">
        <ele>424.560000</ele>
        <time>2009-03-01T11:13:18Z</time>
      </trkpt>
      <trkpt lat="50.665751" lon="6.412586">
        <ele>424.080000</ele>
        <time>2009-03-01T11:13:21Z</time>
      </trkpt>
      <trkpt lat="50.665685" lon="6.412469">
        <ele>424.560000</ele>
        <time>2009-03-01T11:13:28Z</time>
      </trkpt>
      <trkpt lat="50.665676" lon="6.412433">
        <ele>425.040000</ele>
        <time>2009-03-01T11:13:30Z</time>
      </trkpt>
      <trkpt lat="50.665634" lon="6.412355">
        <ele>426.000000</ele>
        <time>2009-03-01T11:13:36Z</time>
      </trkpt>
      <trkpt lat="50.665573" lon="6.412304">
        <ele>426.000000</ele>
        <time>2009-03-01T11:13:42Z</time>
      </trkpt>
      <trkpt lat="50.665420" lon="6.412192">
        <ele>426.960000</ele>
        <time>2009-03-01T11:13:52Z</time>
      </trkpt>
      <trkpt lat="50.665266" lon="6.412114">
        <ele>427.920000</ele>
        <time>2009-03-01T11:14:05Z</time>
      </trkpt>
      <trkpt lat="50.665105" lon="6.412050">
        <ele>428.890000</ele>
        <time>2009-03-01T11:14:17Z</time>
      </trkpt>
      <trkpt lat="50.665061" lon="6.411958">
        <ele>429.370000</ele>
        <time>2009-03-01T11:14:22Z</time>
      </trkpt>
      <trkpt lat="50.665112" lon="6.411813">
        <ele>429.370000</ele>
        <time>2009-03-01T11:14:31Z</time>
      </trkpt>
      <trkpt lat="50.665129" lon="6.411742">
        <ele>429.850000</ele>
        <time>2009-03-01T11:14:35Z</time>
      </trkpt>
      <trkpt lat="50.665192" lon="6.411425">
        <ele>429.850000</ele>
        <time>2009-03-01T11:14:50Z</time>
      </trkpt>
      <trkpt lat="50.665216" lon="6.411301">
        <ele>429.850000</ele>
        <time>2009-03-01T11:14:57Z</time>
      </trkpt>
      <trkpt lat="50.665196" lon="6.411143">
        <ele>430.330000</ele>
        <time>2009-03-01T11:15:03Z</time>
      </trkpt>
      <trkpt lat="50.665097" lon="6.410902">
        <ele>431.770000</ele>
        <time>2009-03-01T11:15:17Z</time>
      </trkpt>
      <trkpt lat="50.665090" lon="6.410805">
        <ele>431.770000</ele>
        <time>2009-03-01T11:15:21Z</time>
      </trkpt>
      <trkpt lat="50.664945" lon="6.410553">
        <ele>432.250000</ele>
        <time>2009-03-01T11:15:36Z</time>
      </trkpt>
      <trkpt lat="50.664830" lon="6.410329">
        <ele>432.730000</ele>
        <time>2009-03-01T11:15:51Z</time>
      </trkpt>
      <trkpt lat="50.664729" lon="6.410092">
        <ele>434.170000</ele>
        <time>2009-03-01T11:16:05Z</time>
      </trkpt>
      <trkpt lat="50.664630" lon="6.409936">
        <ele>433.690000</ele>
        <time>2009-03-01T11:16:17Z</time>
      </trkpt>
      <trkpt lat="50.664562" lon="6.409737">
        <ele>435.130000</ele>
        <time>2009-03-01T11:16:28Z</time>
      </trkpt>
      <trkpt lat="50.664448" lon="6.409507">
        <ele>435.130000</ele>
        <time>2009-03-01T11:16:42Z</time>
      </trkpt>
      <trkpt lat="50.664340" lon="6.409313">
        <ele>435.130000</ele>
        <time>2009-03-01T11:16:56Z</time>
      </trkpt>
      <trkpt lat="50.664291" lon="6.409224">
        <ele>435.130000</ele>
        <time>2009-03-01T11:17:02Z</time>
      </trkpt>
      <trkpt lat="50.664288" lon="6.409194">
        <ele>435.130000</ele>
        <time>2009-03-01T11:17:04Z</time>
      </trkpt>
      <trkpt lat="50.664184" lon="6.408970">
        <ele>435.130000</ele>
        <time>2009-03-01T11:17:18Z</time>
      </trkpt>
      <trkpt lat="50.664148" lon="6.408949">
        <ele>434.650000</ele>
        <time>2009-03-01T11:17:46Z</time>
      </trkpt>
      <trkpt lat="50.664199" lon="6.409066">
        <ele>434.650000</ele>
        <time>2009-03-01T11:18:20Z</time>
      </trkpt>
      <trkpt lat="50.664220" lon="6.409063">
        <ele>434.170000</ele>
        <time>2009-03-01T11:18:56Z</time>
      </trkpt>
      <trkpt lat="50.664047" lon="6.408706"/>
      <trkpt lat="50.663912" lon="6.408515"/>
      <trkpt lat="50.663777" lon="6.408387"/>
      <trkpt lat="50.663642" lon="6.408132"/>
      <trkpt lat="50.663521" lon="6.407941"/>
      <trkpt lat="50.663413" lon="6.407686"/>
      <trkpt lat="50.663359" lon="6.407409"/>
      <trkpt lat="50.663292" lon="6.407197"/>
      <trkpt lat="50.663292" lon="6.407176"/>
      <trkpt lat="50.663184" lon="6.406984"/>
    </trkseg>
  </trk>

</gpx>
